VIR154 KJFK-EGLL
Flight info
| Callsign | VIR154 |
|---|---|
| Flight time | 6h 5m |
| Altitude | 40000 |
| Route | MERIT DCT HFD DCT PUT/M084F380 DCT EBONY DCT TUDEP/M084F400 DCT 52N050W 53N040W 54N030W 54N020W DCT MALOT DCT GISTI/N0488F380 DCT KORAK DCT LIFFY UL975 MALUD Q38 NUGRA |
| Aircraft | A35K/H-SDE2E3GHIJ3J4J5LM1ORWXY/LB1D1 |
Departure
| Time | 2026-05-07 13:43 |
|---|---|
| Airport | John F. Kennedy International Airport (KJFK) |
Arrival
| Time | 2026-05-07 19:48 |
|---|---|
| Airport | London Heathrow Airport (EGLL) |
| Time | Latitude | Longitude | Altitude | Speed | Heading |
|---|---|---|---|---|---|
| 2026-05-07 13:19 | 40.64942 | -73.78981 | 30 ft | 0 kts | 199° |
| 2026-05-07 13:32 | 40.64948 | -73.78978 | 29 ft | 2 kts | 197° |
| 2026-05-07 13:32 | 40.64964 | -73.78972 | 29 ft | 2 kts | 198° |
| 2026-05-07 13:32 | 40.64979 | -73.78965 | 29 ft | 2 kts | 197° |
| 2026-05-07 13:32 | 40.64995 | -73.78959 | 28 ft | 2 kts | 195° |
| 2026-05-07 13:33 | 40.65011 | -73.78953 | 28 ft | 2 kts | 194° |
| 2026-05-07 13:33 | 40.65027 | -73.78948 | 28 ft | 2 kts | 202° |
| 2026-05-07 13:33 | 40.65034 | -73.78943 | 28 ft | 0 kts | 239° |
| 2026-05-07 13:35 | 40.65021 | -73.78972 | 27 ft | 13 kts | 239° |
| 2026-05-07 13:35 | 40.64959 | -73.79115 | 29 ft | 16 kts | 242° |
| 2026-05-07 13:36 | 40.64903 | -73.79247 | 29 ft | 17 kts | 240° |
| 2026-05-07 13:36 | 40.64842 | -73.79392 | 29 ft | 19 kts | 241° |
| 2026-05-07 13:36 | 40.64792 | -73.79509 | 29 ft | 15 kts | 241° |
| 2026-05-07 13:36 | 40.64737 | -73.79615 | 29 ft | 7 kts | 205° |
| 2026-05-07 13:37 | 40.64687 | -73.79600 | 29 ft | 9 kts | 156° |
| 2026-05-07 13:37 | 40.64630 | -73.79551 | 29 ft | 11 kts | 146° |
| 2026-05-07 13:37 | 40.64539 | -73.79507 | 30 ft | 18 kts | 172° |
| 2026-05-07 13:37 | 40.64406 | -73.79492 | 30 ft | 20 kts | 176° |
| 2026-05-07 13:38 | 40.64261 | -73.79499 | 30 ft | 22 kts | 184° |
| 2026-05-07 13:38 | 40.64105 | -73.79499 | 28 ft | 24 kts | 163° |
| 2026-05-07 13:38 | 40.63997 | -73.79336 | 27 ft | 25 kts | 121° |
| 2026-05-07 13:38 | 40.63904 | -73.79131 | 27 ft | 26 kts | 121° |
| 2026-05-07 13:39 | 40.63809 | -73.78923 | 30 ft | 27 kts | 121° |
| 2026-05-07 13:39 | 40.63715 | -73.78715 | 35 ft | 26 kts | 121° |
| 2026-05-07 13:39 | 40.63619 | -73.78502 | 35 ft | 28 kts | 121° |
| 2026-05-07 13:39 | 40.63520 | -73.78285 | 31 ft | 30 kts | 121° |
| 2026-05-07 13:40 | 40.63418 | -73.78059 | 30 ft | 29 kts | 119° |
| 2026-05-07 13:40 | 40.63320 | -73.77832 | 33 ft | 26 kts | 121° |
| 2026-05-07 13:40 | 40.63224 | -73.77623 | 34 ft | 27 kts | 121° |
| 2026-05-07 13:40 | 40.63128 | -73.77409 | 34 ft | 28 kts | 121° |
| 2026-05-07 13:41 | 40.63025 | -73.77181 | 32 ft | 29 kts | 121° |
| 2026-05-07 13:41 | 40.62941 | -73.77106 | 30 ft | 14 kts | 190° |
| 2026-05-07 13:41 | 40.62848 | -73.77169 | 30 ft | 16 kts | 219° |
| 2026-05-07 13:41 | 40.62843 | -73.77269 | 30 ft | 7 kts | 297° |
| 2026-05-07 13:42 | 40.62844 | -73.77271 | 30 ft | 0 kts | 297° |
| 2026-05-07 13:42 | 40.62870 | -73.77333 | 32 ft | 38 kts | 300° |
| 2026-05-07 13:42 | 40.63049 | -73.77727 | 35 ft | 49 kts | 301° |
| 2026-05-07 13:43 | 40.63315 | -73.78313 | 29 ft | 116 kts | 301° |
| 2026-05-07 13:43 | 40.63652 | -73.79059 | 34 ft | 169 kts | 300° |
| 2026-05-07 13:43 | 40.64220 | -73.80337 | 663 ft | 135 kts | 302° |
| 2026-05-07 13:43 | 40.64710 | -73.81439 | 1119 ft | 131 kts | 303° |
| 2026-05-07 13:44 | 40.65113 | -73.82365 | 1033 ft | 113 kts | 304° |
| 2026-05-07 13:44 | 40.65518 | -73.83320 | 1468 ft | 125 kts | 302° |
| 2026-05-07 13:44 | 40.65938 | -73.84407 | 2129 ft | 140 kts | 300° |
| 2026-05-07 13:44 | 40.66410 | -73.85591 | 2720 ft | 153 kts | 309° |
| 2026-05-07 13:45 | 40.67303 | -73.86396 | 2927 ft | 163 kts | 346° |
| 2026-05-07 13:45 | 40.68458 | -73.86214 | 3105 ft | 180 kts | 16° |
| 2026-05-07 13:45 | 40.69618 | -73.85399 | 3294 ft | 198 kts | 30° |
| 2026-05-07 13:45 | 40.70757 | -73.84234 | 3426 ft | 217 kts | 36° |
| 2026-05-07 13:46 | 40.71925 | -73.82867 | 3621 ft | 232 kts | 37° |
| 2026-05-07 13:46 | 40.73161 | -73.81405 | 3807 ft | 245 kts | 37° |
| 2026-05-07 13:46 | 40.74471 | -73.79910 | 4062 ft | 253 kts | 35° |
| 2026-05-07 13:46 | 40.75841 | -73.78411 | 4366 ft | 259 kts | 34° |
| 2026-05-07 13:47 | 40.77259 | -73.76913 | 4694 ft | 264 kts | 33° |
| 2026-05-07 13:47 | 40.78718 | -73.75407 | 4998 ft | 268 kts | 33° |
| 2026-05-07 13:47 | 40.80207 | -73.73886 | 5271 ft | 274 kts | 32° |
| 2026-05-07 13:47 | 40.81729 | -73.72337 | 5568 ft | 279 kts | 32° |
| 2026-05-07 13:48 | 40.83275 | -73.70761 | 5905 ft | 281 kts | 32° |
| 2026-05-07 13:48 | 40.84829 | -73.69171 | 6251 ft | 285 kts | 32° |
| 2026-05-07 13:48 | 40.86417 | -73.67544 | 6506 ft | 291 kts | 32° |
| 2026-05-07 13:48 | 40.88022 | -73.65896 | 6805 ft | 294 kts | 32° |
| 2026-05-07 13:49 | 40.89646 | -73.64224 | 7073 ft | 299 kts | 32° |
| 2026-05-07 13:49 | 40.91300 | -73.62522 | 7306 ft | 304 kts | 32° |
| 2026-05-07 13:49 | 40.92976 | -73.60795 | 7634 ft | 306 kts | 32° |
| 2026-05-07 13:49 | 40.94666 | -73.59052 | 7925 ft | 310 kts | 32° |
| 2026-05-07 13:50 | 40.96376 | -73.57287 | 8209 ft | 313 kts | 32° |
| 2026-05-07 13:50 | 40.98100 | -73.55505 | 8523 ft | 316 kts | 32° |
| 2026-05-07 13:50 | 40.99838 | -73.53708 | 8789 ft | 319 kts | 31° |
| 2026-05-07 13:50 | 41.01594 | -73.51893 | 9094 ft | 321 kts | 32° |
| 2026-05-07 13:51 | 41.03335 | -73.50091 | 9397 ft | 323 kts | 31° |
| 2026-05-07 13:51 | 41.05138 | -73.48225 | 9668 ft | 327 kts | 31° |
| 2026-05-07 13:51 | 41.06937 | -73.46363 | 9934 ft | 330 kts | 31° |
| 2026-05-07 13:51 | 41.08738 | -73.44497 | 10079 ft | 336 kts | 31° |
| 2026-05-07 13:52 | 41.10601 | -73.42568 | 10190 ft | 343 kts | 32° |
| 2026-05-07 13:52 | 41.12496 | -73.40605 | 10309 ft | 349 kts | 32° |
| 2026-05-07 13:52 | 41.14425 | -73.38604 | 10410 ft | 355 kts | 32° |
| 2026-05-07 13:52 | 41.16403 | -73.36551 | 10580 ft | 368 kts | 32° |
| 2026-05-07 13:53 | 41.18459 | -73.34420 | 10829 ft | 383 kts | 32° |
| 2026-05-07 13:53 | 41.20601 | -73.32197 | 11132 ft | 397 kts | 33° |
| 2026-05-07 13:53 | 41.22808 | -73.29899 | 11374 ft | 410 kts | 33° |
| 2026-05-07 13:53 | 41.25084 | -73.27524 | 11611 ft | 422 kts | 33° |
| 2026-05-07 13:54 | 41.27419 | -73.25081 | 11955 ft | 431 kts | 33° |
| 2026-05-07 13:54 | 41.29782 | -73.22604 | 12419 ft | 435 kts | 33° |
| 2026-05-07 13:54 | 41.32170 | -73.20096 | 12844 ft | 441 kts | 33° |
| 2026-05-07 13:54 | 41.34599 | -73.17547 | 13262 ft | 447 kts | 33° |
| 2026-05-07 13:55 | 41.37001 | -73.14884 | 13731 ft | 455 kts | 40° |
| 2026-05-07 13:55 | 41.39049 | -73.11626 | 14179 ft | 462 kts | 52° |
| 2026-05-07 13:55 | 41.40853 | -73.08075 | 14648 ft | 464 kts | 56° |
| 2026-05-07 13:55 | 41.42535 | -73.04394 | 15147 ft | 466 kts | 58° |
| 2026-05-07 13:56 | 41.44165 | -73.00638 | 15580 ft | 470 kts | 59° |
| 2026-05-07 13:56 | 41.45789 | -72.96833 | 16022 ft | 473 kts | 59° |
| 2026-05-07 13:56 | 41.47423 | -72.93014 | 16382 ft | 477 kts | 59° |
| 2026-05-07 13:56 | 41.49086 | -72.89158 | 16712 ft | 483 kts | 59° |
| 2026-05-07 13:57 | 41.50777 | -72.85268 | 17160 ft | 485 kts | 58° |
| 2026-05-07 13:57 | 41.52477 | -72.81380 | 17591 ft | 487 kts | 58° |
| 2026-05-07 13:57 | 41.54196 | -72.77462 | 18002 ft | 490 kts | 58° |
| 2026-05-07 13:57 | 41.55924 | -72.73521 | 18388 ft | 493 kts | 58° |
| 2026-05-07 13:58 | 41.57663 | -72.69551 | 18668 ft | 498 kts | 58° |
| 2026-05-07 13:58 | 41.59419 | -72.65537 | 18931 ft | 503 kts | 58° |
| 2026-05-07 13:58 | 41.61185 | -72.61492 | 19240 ft | 507 kts | 58° |
| 2026-05-07 13:58 | 41.62972 | -72.57395 | 19446 ft | 513 kts | 58° |
| 2026-05-07 13:59 | 41.64776 | -72.53256 | 19701 ft | 517 kts | 58° |
| 2026-05-07 13:59 | 41.66620 | -72.49104 | 20000 ft | 520 kts | 57° |
| 2026-05-07 13:59 | 41.68498 | -72.44950 | 20329 ft | 523 kts | 57° |
| 2026-05-07 13:59 | 41.70364 | -72.40842 | 20621 ft | 526 kts | 56° |
| 2026-05-07 14:00 | 41.72293 | -72.36590 | 20898 ft | 530 kts | 56° |
| 2026-05-07 14:00 | 41.74207 | -72.32354 | 21171 ft | 534 kts | 56° |
| 2026-05-07 14:00 | 41.76106 | -72.28135 | 21443 ft | 537 kts | 56° |
| 2026-05-07 14:00 | 41.78035 | -72.23836 | 21642 ft | 541 kts | 57° |
| 2026-05-07 14:01 | 41.79978 | -72.19495 | 21892 ft | 545 kts | 57° |
| 2026-05-07 14:01 | 41.81933 | -72.15117 | 22189 ft | 548 kts | 57° |
| 2026-05-07 14:01 | 41.83893 | -72.10722 | 22603 ft | 550 kts | 56° |
| 2026-05-07 14:01 | 41.85859 | -72.06305 | 22868 ft | 553 kts | 56° |
| 2026-05-07 14:02 | 41.87836 | -72.01858 | 23110 ft | 557 kts | 56° |
| 2026-05-07 14:02 | 41.89824 | -71.97381 | 23378 ft | 560 kts | 56° |
| 2026-05-07 14:02 | 41.91821 | -71.92874 | 23617 ft | 563 kts | 56° |
| 2026-05-07 14:02 | 41.93828 | -71.88347 | 23776 ft | 567 kts | 56° |
| 2026-05-07 14:03 | 41.96082 | -71.84002 | 23974 ft | 565 kts | 46° |
| 2026-05-07 14:03 | 41.98603 | -71.79955 | 24335 ft | 564 kts | 44° |
| 2026-05-07 14:03 | 42.01193 | -71.76003 | 24625 ft | 564 kts | 42° |
| 2026-05-07 14:03 | 42.03832 | -71.72093 | 24825 ft | 567 kts | 41° |
| 2026-05-07 14:04 | 42.06516 | -71.68168 | 25038 ft | 570 kts | 41° |
| 2026-05-07 14:04 | 42.09207 | -71.64240 | 25258 ft | 573 kts | 41° |
| 2026-05-07 14:04 | 42.11909 | -71.60283 | 25482 ft | 575 kts | 41° |
| 2026-05-07 14:04 | 42.14619 | -71.56295 | 25776 ft | 578 kts | 41° |
| 2026-05-07 14:05 | 42.17330 | -71.52285 | 25975 ft | 581 kts | 41° |
| 2026-05-07 14:05 | 42.20054 | -71.48242 | 26151 ft | 584 kts | 41° |
| 2026-05-07 14:05 | 42.22791 | -71.44168 | 26361 ft | 587 kts | 42° |
| 2026-05-07 14:05 | 42.25541 | -71.40067 | 26585 ft | 590 kts | 42° |
| 2026-05-07 14:06 | 42.28293 | -71.35957 | 26808 ft | 592 kts | 41° |
| 2026-05-07 14:06 | 42.31065 | -71.31812 | 27123 ft | 595 kts | 42° |
| 2026-05-07 14:06 | 42.33846 | -71.27650 | 27347 ft | 598 kts | 41° |
| 2026-05-07 14:06 | 42.36636 | -71.23469 | 27565 ft | 601 kts | 41° |
| 2026-05-07 14:07 | 42.39443 | -71.19257 | 27786 ft | 604 kts | 41° |
| 2026-05-07 14:07 | 42.42262 | -71.15021 | 27988 ft | 607 kts | 41° |
| 2026-05-07 14:07 | 42.45097 | -71.10755 | 28261 ft | 610 kts | 42° |
| 2026-05-07 14:07 | 42.47939 | -71.06471 | 28455 ft | 613 kts | 41° |
| 2026-05-07 14:08 | 42.50795 | -71.02161 | 28653 ft | 616 kts | 41° |
| 2026-05-07 14:08 | 42.53665 | -70.97825 | 28830 ft | 619 kts | 41° |
| 2026-05-07 14:08 | 42.56544 | -70.93464 | 29037 ft | 622 kts | 41° |
| 2026-05-07 14:08 | 42.59440 | -70.89073 | 29229 ft | 625 kts | 41° |
| 2026-05-07 14:09 | 42.62344 | -70.84662 | 29436 ft | 627 kts | 41° |
| 2026-05-07 14:09 | 42.65252 | -70.80237 | 29661 ft | 630 kts | 41° |
| 2026-05-07 14:09 | 42.68174 | -70.75787 | 29834 ft | 633 kts | 41° |
| 2026-05-07 14:09 | 42.71104 | -70.71316 | 30025 ft | 634 kts | 41° |
| 2026-05-07 14:10 | 42.74038 | -70.66830 | 30299 ft | 634 kts | 41° |
| 2026-05-07 14:10 | 42.76962 | -70.62351 | 30693 ft | 633 kts | 41° |
| 2026-05-07 14:10 | 42.79880 | -70.57873 | 31039 ft | 632 kts | 41° |
| 2026-05-07 14:10 | 42.82791 | -70.53401 | 31284 ft | 632 kts | 41° |
| 2026-05-07 14:11 | 42.85705 | -70.48920 | 31659 ft | 631 kts | 41° |
| 2026-05-07 14:11 | 42.88613 | -70.44442 | 32096 ft | 630 kts | 41° |
| 2026-05-07 14:11 | 42.91515 | -70.39967 | 32560 ft | 629 kts | 41° |
| 2026-05-07 14:11 | 42.94374 | -70.35554 | 32936 ft | 629 kts | 41° |
| 2026-05-07 14:12 | 42.97190 | -70.31199 | 33289 ft | 629 kts | 41° |
| 2026-05-07 14:12 | 43.00085 | -70.26715 | 33633 ft | 629 kts | 41° |
| 2026-05-07 14:12 | 43.02972 | -70.22237 | 33955 ft | 629 kts | 41° |
| 2026-05-07 14:12 | 43.05820 | -70.17808 | 34267 ft | 626 kts | 41° |
| 2026-05-07 14:13 | 43.08720 | -70.13288 | 34747 ft | 621 kts | 42° |
| 2026-05-07 14:13 | 43.11516 | -70.08921 | 35207 ft | 616 kts | 42° |
| 2026-05-07 14:13 | 43.14145 | -70.04813 | 35591 ft | 613 kts | 42° |
| 2026-05-07 14:13 | 43.16947 | -70.00432 | 35943 ft | 610 kts | 42° |
| 2026-05-07 14:14 | 43.19741 | -69.96061 | 36258 ft | 608 kts | 42° |
| 2026-05-07 14:14 | 43.22518 | -69.91711 | 36663 ft | 605 kts | 43° |
| 2026-05-07 14:14 | 43.25281 | -69.87373 | 37069 ft | 601 kts | 43° |
| 2026-05-07 14:14 | 43.28018 | -69.83069 | 37399 ft | 598 kts | 43° |
| 2026-05-07 14:15 | 43.30746 | -69.78771 | 37679 ft | 596 kts | 43° |
| 2026-05-07 14:15 | 43.33471 | -69.74477 | 37814 ft | 597 kts | 43° |
| 2026-05-07 14:15 | 43.36197 | -69.70176 | 37848 ft | 597 kts | 43° |
| 2026-05-07 14:16 | 43.37114 | -69.68727 | 37836 ft | 597 kts | 43° |
| 2026-05-07 14:18 | 43.40832 | -69.62841 | 37821 ft | 596 kts | 43° |
| 2026-05-07 14:18 | 43.46253 | -69.54234 | 37828 ft | 595 kts | 43° |
| 2026-05-07 14:19 | 43.51674 | -69.45605 | 37843 ft | 595 kts | 44° |
| 2026-05-07 14:19 | 43.57029 | -69.37051 | 37817 ft | 592 kts | 44° |
| 2026-05-07 14:20 | 43.62398 | -69.28451 | 37812 ft | 591 kts | 44° |
| 2026-05-07 14:20 | 43.67761 | -69.19841 | 37813 ft | 591 kts | 44° |
| 2026-05-07 14:21 | 43.73101 | -69.11236 | 37808 ft | 590 kts | 44° |
| 2026-05-07 14:21 | 43.78435 | -69.02616 | 37776 ft | 589 kts | 44° |
| 2026-05-07 14:22 | 43.83764 | -68.93978 | 37807 ft | 589 kts | 45° |
| 2026-05-07 14:22 | 43.89072 | -68.85345 | 37798 ft | 588 kts | 45° |
| 2026-05-07 14:23 | 43.94367 | -68.76712 | 37797 ft | 588 kts | 45° |
| 2026-05-07 14:23 | 43.99656 | -68.68063 | 37793 ft | 586 kts | 45° |
| 2026-05-07 14:24 | 44.04914 | -68.59435 | 37791 ft | 585 kts | 45° |
| 2026-05-07 14:24 | 44.10168 | -68.50791 | 37793 ft | 585 kts | 45° |
| 2026-05-07 14:25 | 44.15406 | -68.42146 | 37785 ft | 583 kts | 46° |
| 2026-05-07 14:25 | 44.20620 | -68.33514 | 37785 ft | 582 kts | 46° |
| 2026-05-07 14:26 | 44.25824 | -68.24874 | 37801 ft | 582 kts | 46° |
| 2026-05-07 14:26 | 44.31022 | -68.16219 | 37783 ft | 581 kts | 46° |
| 2026-05-07 14:27 | 44.36165 | -68.07625 | 37780 ft | 580 kts | 46° |
| 2026-05-07 14:27 | 44.41367 | -67.98910 | 37786 ft | 580 kts | 47° |
| 2026-05-07 14:28 | 44.46492 | -67.90296 | 37777 ft | 579 kts | 47° |
| 2026-05-07 14:28 | 44.51639 | -67.81619 | 37768 ft | 579 kts | 47° |
| 2026-05-07 14:29 | 44.56777 | -67.72932 | 37769 ft | 579 kts | 47° |
| 2026-05-07 14:29 | 44.61910 | -67.64227 | 37762 ft | 579 kts | 47° |
| 2026-05-07 14:30 | 44.67032 | -67.55511 | 37764 ft | 579 kts | 47° |
| 2026-05-07 14:30 | 44.72153 | -67.46775 | 37761 ft | 579 kts | 47° |
| 2026-05-07 14:31 | 44.77262 | -67.38031 | 37764 ft | 579 kts | 47° |
| 2026-05-07 14:31 | 44.82366 | -67.29267 | 37763 ft | 579 kts | 47° |
| 2026-05-07 14:32 | 44.87466 | -67.20482 | 37770 ft | 579 kts | 48° |
| 2026-05-07 14:32 | 44.92540 | -67.11708 | 37760 ft | 576 kts | 48° |
| 2026-05-07 14:33 | 44.97568 | -67.02910 | 37759 ft | 576 kts | 48° |
| 2026-05-07 14:33 | 45.02584 | -66.94088 | 37762 ft | 575 kts | 49° |
| 2026-05-07 14:34 | 45.07587 | -66.85268 | 37749 ft | 574 kts | 49° |
| 2026-05-07 14:34 | 45.12572 | -66.76465 | 37747 ft | 573 kts | 49° |
| 2026-05-07 14:35 | 45.17555 | -66.67641 | 37742 ft | 573 kts | 49° |
| 2026-05-07 14:35 | 45.22533 | -66.58797 | 37744 ft | 574 kts | 49° |
| 2026-05-07 14:36 | 45.27476 | -66.49986 | 37744 ft | 574 kts | 49° |
| 2026-05-07 14:36 | 45.32444 | -66.41108 | 37742 ft | 574 kts | 49° |
| 2026-05-07 14:37 | 45.37398 | -66.32221 | 37736 ft | 573 kts | 49° |
| 2026-05-07 14:37 | 45.44813 | -66.18868 | 37736 ft | 573 kts | 50° |
| 2026-05-07 14:38 | 45.49745 | -66.09951 | 37737 ft | 571 kts | 50° |
| 2026-05-07 14:38 | 45.54649 | -66.01057 | 37736 ft | 570 kts | 50° |
| 2026-05-07 14:39 | 45.59543 | -65.92154 | 37733 ft | 570 kts | 50° |
| 2026-05-07 14:39 | 45.64427 | -65.83241 | 37712 ft | 569 kts | 50° |
| 2026-05-07 14:40 | 45.69302 | -65.74317 | 37730 ft | 570 kts | 50° |
| 2026-05-07 14:40 | 45.74169 | -65.65378 | 37727 ft | 570 kts | 50° |
| 2026-05-07 14:41 | 45.79031 | -65.56420 | 37729 ft | 569 kts | 50° |
| 2026-05-07 14:41 | 45.83881 | -65.47455 | 37714 ft | 569 kts | 50° |
| 2026-05-07 14:42 | 45.88723 | -65.38478 | 37721 ft | 569 kts | 51° |
| 2026-05-07 14:42 | 45.93523 | -65.29550 | 37726 ft | 568 kts | 51° |
| 2026-05-07 14:43 | 45.98336 | -65.20568 | 37712 ft | 566 kts | 51° |
| 2026-05-07 14:43 | 46.03135 | -65.11584 | 37711 ft | 566 kts | 51° |
| 2026-05-07 14:44 | 46.07924 | -65.02592 | 37709 ft | 566 kts | 51° |
| 2026-05-07 14:44 | 46.12710 | -64.93574 | 37706 ft | 566 kts | 51° |
| 2026-05-07 14:45 | 46.17487 | -64.84544 | 37702 ft | 566 kts | 51° |
| 2026-05-07 14:45 | 46.22257 | -64.75499 | 37725 ft | 566 kts | 51° |
| 2026-05-07 14:46 | 46.27013 | -64.66452 | 37694 ft | 565 kts | 52° |
| 2026-05-07 14:46 | 46.31753 | -64.57404 | 37695 ft | 565 kts | 52° |
| 2026-05-07 14:47 | 46.36490 | -64.48333 | 37696 ft | 565 kts | 52° |
| 2026-05-07 14:47 | 46.41214 | -64.39259 | 37692 ft | 563 kts | 52° |
| 2026-05-07 14:48 | 46.45917 | -64.30195 | 37699 ft | 563 kts | 52° |
| 2026-05-07 14:48 | 46.50617 | -64.21108 | 37695 ft | 563 kts | 52° |
| 2026-05-07 14:49 | 46.55306 | -64.12011 | 37668 ft | 562 kts | 52° |
| 2026-05-07 14:49 | 46.59974 | -64.02924 | 37697 ft | 560 kts | 52° |
| 2026-05-07 14:50 | 46.64600 | -63.93892 | 37697 ft | 560 kts | 52° |
| 2026-05-07 14:50 | 46.69248 | -63.84787 | 37694 ft | 560 kts | 52° |
| 2026-05-07 14:51 | 46.73908 | -63.75628 | 37697 ft | 558 kts | 52° |
| 2026-05-07 14:51 | 46.78525 | -63.66525 | 37691 ft | 558 kts | 53° |
| 2026-05-07 14:52 | 46.83104 | -63.57465 | 37787 ft | 559 kts | 53° |
| 2026-05-07 14:52 | 46.85433 | -63.52846 | 38085 ft | 556 kts | 53° |
| 2026-05-07 14:52 | 46.87719 | -63.48304 | 38399 ft | 554 kts | 53° |
| 2026-05-07 14:53 | 46.89997 | -63.43772 | 38575 ft | 552 kts | 53° |
| 2026-05-07 14:53 | 46.92239 | -63.39302 | 38711 ft | 552 kts | 53° |
| 2026-05-07 14:53 | 46.94507 | -63.34774 | 38829 ft | 552 kts | 53° |
| 2026-05-07 14:53 | 46.96777 | -63.30236 | 38952 ft | 552 kts | 53° |
| 2026-05-07 14:54 | 46.99042 | -63.25701 | 39098 ft | 551 kts | 53° |
| 2026-05-07 14:54 | 47.01301 | -63.21170 | 39199 ft | 550 kts | 53° |
| 2026-05-07 14:54 | 47.03551 | -63.16649 | 39339 ft | 549 kts | 53° |
| 2026-05-07 14:54 | 47.05801 | -63.12119 | 39467 ft | 549 kts | 53° |
| 2026-05-07 14:55 | 47.08044 | -63.07599 | 39570 ft | 548 kts | 53° |
| 2026-05-07 14:55 | 47.10289 | -63.03064 | 39624 ft | 550 kts | 53° |
| 2026-05-07 14:55 | 47.14801 | -62.93935 | 39655 ft | 554 kts | 54° |
| 2026-05-07 14:56 | 47.19316 | -62.84767 | 39690 ft | 553 kts | 54° |
| 2026-05-07 14:56 | 47.23814 | -62.75599 | 39683 ft | 553 kts | 54° |
| 2026-05-07 14:57 | 47.28306 | -62.66413 | 39680 ft | 553 kts | 54° |
| 2026-05-07 14:57 | 47.32786 | -62.57225 | 39683 ft | 552 kts | 54° |
| 2026-05-07 14:58 | 47.37251 | -62.48034 | 39684 ft | 551 kts | 54° |
| 2026-05-07 14:58 | 47.41709 | -62.38828 | 39679 ft | 551 kts | 54° |
| 2026-05-07 14:59 | 47.46162 | -62.29602 | 39678 ft | 551 kts | 54° |
| 2026-05-07 14:59 | 47.50593 | -62.20389 | 39686 ft | 550 kts | 54° |
| 2026-05-07 15:00 | 47.55020 | -62.11156 | 39689 ft | 550 kts | 54° |
| 2026-05-07 15:00 | 47.59436 | -62.01914 | 39688 ft | 550 kts | 55° |
| 2026-05-07 15:01 | 47.63843 | -61.92658 | 39686 ft | 550 kts | 55° |
| 2026-05-07 15:01 | 47.67501 | -61.84953 | 39701 ft | 549 kts | 55° |
| 2026-05-07 15:02 | 47.71896 | -61.75666 | 39697 ft | 550 kts | 55° |
| 2026-05-07 15:02 | 47.76282 | -61.66367 | 39704 ft | 549 kts | 55° |
| 2026-05-07 15:03 | 47.80658 | -61.57057 | 39682 ft | 549 kts | 56° |
| 2026-05-07 15:03 | 47.85028 | -61.47728 | 39711 ft | 549 kts | 56° |
| 2026-05-07 15:04 | 47.89391 | -61.38383 | 39698 ft | 549 kts | 56° |
| 2026-05-07 15:04 | 47.93751 | -61.29011 | 39693 ft | 550 kts | 56° |
| 2026-05-07 15:05 | 47.98102 | -61.19628 | 39705 ft | 550 kts | 56° |
| 2026-05-07 15:05 | 48.02443 | -61.10233 | 39713 ft | 550 kts | 56° |
| 2026-05-07 15:06 | 48.06780 | -61.00814 | 39717 ft | 550 kts | 56° |
| 2026-05-07 15:06 | 48.11076 | -60.91452 | 39715 ft | 550 kts | 56° |
| 2026-05-07 15:07 | 48.15391 | -60.82016 | 39714 ft | 550 kts | 56° |
| 2026-05-07 15:07 | 48.19701 | -60.72558 | 39722 ft | 550 kts | 56° |
| 2026-05-07 15:08 | 48.24003 | -60.63084 | 39736 ft | 549 kts | 56° |
| 2026-05-07 15:08 | 48.28292 | -60.53607 | 39736 ft | 549 kts | 57° |
| 2026-05-07 15:09 | 48.32574 | -60.44110 | 39734 ft | 549 kts | 57° |
| 2026-05-07 15:09 | 48.36850 | -60.34596 | 39743 ft | 549 kts | 57° |
| 2026-05-07 15:10 | 48.41111 | -60.25081 | 39745 ft | 548 kts | 57° |
| 2026-05-07 15:10 | 48.45363 | -60.15552 | 39754 ft | 548 kts | 57° |
| 2026-05-07 15:11 | 48.49604 | -60.06014 | 39749 ft | 548 kts | 57° |
| 2026-05-07 15:11 | 48.53838 | -59.96458 | 39751 ft | 547 kts | 57° |
| 2026-05-07 15:12 | 48.58029 | -59.86966 | 39762 ft | 547 kts | 57° |
| 2026-05-07 15:12 | 48.62238 | -59.77400 | 39762 ft | 547 kts | 57° |
| 2026-05-07 15:13 | 48.66467 | -59.67754 | 39769 ft | 546 kts | 58° |
| 2026-05-07 15:13 | 48.70626 | -59.58232 | 39768 ft | 546 kts | 58° |
| 2026-05-07 15:14 | 48.74806 | -59.48629 | 39768 ft | 546 kts | 58° |
| 2026-05-07 15:14 | 48.78973 | -59.39022 | 39786 ft | 546 kts | 58° |
| 2026-05-07 15:15 | 48.83132 | -59.29399 | 39783 ft | 545 kts | 58° |
| 2026-05-07 15:15 | 48.87280 | -59.19767 | 39781 ft | 545 kts | 58° |
| 2026-05-07 15:16 | 48.91420 | -59.10118 | 39780 ft | 545 kts | 58° |
| 2026-05-07 15:16 | 48.95552 | -59.00455 | 39797 ft | 545 kts | 59° |
| 2026-05-07 15:17 | 48.99674 | -58.90779 | 39790 ft | 545 kts | 59° |
| 2026-05-07 15:17 | 49.03790 | -58.81082 | 39796 ft | 545 kts | 59° |
| 2026-05-07 15:18 | 49.07899 | -58.71368 | 39798 ft | 545 kts | 59° |
| 2026-05-07 15:18 | 49.11997 | -58.61642 | 39820 ft | 545 kts | 59° |
| 2026-05-07 15:19 | 49.16088 | -58.51898 | 39823 ft | 545 kts | 59° |
| 2026-05-07 15:19 | 49.20172 | -58.42137 | 39823 ft | 545 kts | 59° |
| 2026-05-07 15:20 | 49.24244 | -58.32366 | 39827 ft | 545 kts | 59° |
| 2026-05-07 15:20 | 49.28313 | -58.22568 | 39831 ft | 545 kts | 59° |
| 2026-05-07 15:21 | 49.32370 | -58.12762 | 39857 ft | 545 kts | 59° |
| 2026-05-07 15:21 | 49.36394 | -58.03006 | 39857 ft | 545 kts | 59° |
| 2026-05-07 15:22 | 49.40433 | -57.93162 | 39863 ft | 544 kts | 59° |
| 2026-05-07 15:22 | 49.44450 | -57.83343 | 39874 ft | 542 kts | 59° |
| 2026-05-07 15:23 | 49.48449 | -57.73537 | 39904 ft | 541 kts | 60° |
| 2026-05-07 15:23 | 49.52436 | -57.63720 | 39905 ft | 541 kts | 60° |
| 2026-05-07 15:24 | 49.56415 | -57.53893 | 39907 ft | 540 kts | 60° |
| 2026-05-07 15:24 | 49.60374 | -57.44073 | 39916 ft | 539 kts | 60° |
| 2026-05-07 15:25 | 49.64317 | -57.34254 | 39915 ft | 539 kts | 60° |
| 2026-05-07 15:25 | 49.68255 | -57.24409 | 39933 ft | 539 kts | 60° |
| 2026-05-07 15:26 | 49.72181 | -57.14564 | 39936 ft | 538 kts | 61° |
| 2026-05-07 15:26 | 49.76096 | -57.04706 | 39935 ft | 538 kts | 61° |
| 2026-05-07 15:27 | 49.79996 | -56.94850 | 39937 ft | 537 kts | 61° |
| 2026-05-07 15:27 | 49.83861 | -56.85043 | 39956 ft | 537 kts | 62° |
| 2026-05-07 15:28 | 49.87745 | -56.75154 | 39948 ft | 537 kts | 62° |
| 2026-05-07 15:28 | 49.91622 | -56.65244 | 39947 ft | 537 kts | 62° |
| 2026-05-07 15:29 | 49.95491 | -56.55320 | 39945 ft | 537 kts | 62° |
| 2026-05-07 15:29 | 49.99352 | -56.45377 | 39948 ft | 537 kts | 62° |
| 2026-05-07 15:30 | 50.03210 | -56.35400 | 39952 ft | 539 kts | 62° |
| 2026-05-07 15:30 | 50.07060 | -56.25409 | 39959 ft | 539 kts | 62° |
| 2026-05-07 15:31 | 50.10906 | -56.15390 | 39954 ft | 538 kts | 62° |
| 2026-05-07 15:31 | 50.14738 | -56.05367 | 39958 ft | 539 kts | 62° |
| 2026-05-07 15:32 | 50.18570 | -55.95304 | 39954 ft | 540 kts | 62° |
| 2026-05-07 15:32 | 50.22398 | -55.85218 | 39966 ft | 539 kts | 62° |
| 2026-05-07 15:33 | 50.26211 | -55.75133 | 39969 ft | 539 kts | 62° |
| 2026-05-07 15:33 | 50.30012 | -55.65037 | 39968 ft | 538 kts | 63° |
| 2026-05-07 15:34 | 50.33797 | -55.54944 | 39971 ft | 538 kts | 63° |
| 2026-05-07 15:34 | 50.37549 | -55.44900 | 39965 ft | 538 kts | 63° |
| 2026-05-07 15:35 | 50.41319 | -55.34769 | 39966 ft | 538 kts | 63° |
| 2026-05-07 15:35 | 50.45075 | -55.24635 | 39969 ft | 537 kts | 63° |
| 2026-05-07 15:36 | 50.48819 | -55.14493 | 39966 ft | 537 kts | 63° |
| 2026-05-07 15:36 | 50.52555 | -55.04334 | 39964 ft | 537 kts | 63° |
| 2026-05-07 15:37 | 50.56280 | -54.94164 | 39977 ft | 537 kts | 63° |
| 2026-05-07 15:37 | 50.59996 | -54.83980 | 39979 ft | 537 kts | 63° |
| 2026-05-07 15:38 | 50.63704 | -54.73776 | 39982 ft | 537 kts | 63° |
| 2026-05-07 15:38 | 50.67404 | -54.63553 | 39979 ft | 537 kts | 63° |
| 2026-05-07 15:39 | 50.71091 | -54.53325 | 39991 ft | 536 kts | 63° |
| 2026-05-07 15:39 | 50.74769 | -54.43085 | 39995 ft | 535 kts | 64° |
| 2026-05-07 15:40 | 50.78429 | -54.32850 | 39995 ft | 535 kts | 64° |
| 2026-05-07 15:40 | 50.82081 | -54.22595 | 40001 ft | 535 kts | 64° |
| 2026-05-07 15:41 | 50.85723 | -54.12329 | 39995 ft | 535 kts | 64° |
| 2026-05-07 15:41 | 50.89355 | -54.02052 | 40015 ft | 534 kts | 64° |
| 2026-05-07 15:42 | 50.92949 | -53.91838 | 40011 ft | 534 kts | 64° |
| 2026-05-07 15:42 | 50.96559 | -53.81539 | 40020 ft | 534 kts | 64° |
| 2026-05-07 15:43 | 51.00158 | -53.71228 | 40020 ft | 534 kts | 64° |
| 2026-05-07 15:43 | 51.03747 | -53.60905 | 40020 ft | 533 kts | 64° |
| 2026-05-07 15:44 | 51.07320 | -53.50585 | 40028 ft | 533 kts | 64° |
| 2026-05-07 15:44 | 51.10876 | -53.40275 | 40038 ft | 531 kts | 65° |
| 2026-05-07 15:45 | 51.14423 | -53.29945 | 40041 ft | 531 kts | 65° |
| 2026-05-07 15:45 | 51.17924 | -53.19588 | 40043 ft | 530 kts | 68° |
| 2026-05-07 15:46 | 51.22306 | -53.03489 | 40057 ft | 527 kts | 71° |
| 2026-05-07 15:47 | 51.25132 | -52.92684 | 40060 ft | 528 kts | 71° |
| 2026-05-07 15:47 | 51.28022 | -52.81913 | 40075 ft | 529 kts | 70° |
| 2026-05-07 15:48 | 51.30945 | -52.71122 | 40057 ft | 529 kts | 70° |
| 2026-05-07 15:48 | 51.33861 | -52.60332 | 40071 ft | 529 kts | 70° |
| 2026-05-07 15:49 | 51.36767 | -52.49519 | 40077 ft | 529 kts | 71° |
| 2026-05-07 15:49 | 51.39661 | -52.38684 | 40077 ft | 530 kts | 70° |
| 2026-05-07 15:50 | 51.42550 | -52.27815 | 40083 ft | 530 kts | 70° |
| 2026-05-07 15:50 | 51.45429 | -52.16937 | 40095 ft | 530 kts | 70° |
| 2026-05-07 15:51 | 51.48278 | -52.06118 | 40093 ft | 530 kts | 70° |
| 2026-05-07 15:51 | 51.51136 | -51.95213 | 40095 ft | 531 kts | 71° |
| 2026-05-07 15:52 | 51.53996 | -51.84247 | 40101 ft | 533 kts | 71° |
| 2026-05-07 15:52 | 51.56851 | -51.73248 | 40106 ft | 533 kts | 71° |
| 2026-05-07 15:53 | 51.59215 | -51.64101 | 40112 ft | 533 kts | 71° |
| 2026-05-07 15:53 | 51.62052 | -51.53075 | 40115 ft | 533 kts | 71° |
| 2026-05-07 15:54 | 51.64879 | -51.42030 | 40089 ft | 534 kts | 71° |
| 2026-05-07 15:54 | 51.67695 | -51.30976 | 40121 ft | 533 kts | 71° |
| 2026-05-07 15:55 | 51.70498 | -51.19920 | 40121 ft | 532 kts | 71° |
| 2026-05-07 15:55 | 51.73287 | -51.08867 | 40121 ft | 532 kts | 71° |
| 2026-05-07 15:56 | 51.76067 | -50.97788 | 40132 ft | 533 kts | 71° |
| 2026-05-07 15:56 | 51.78841 | -50.86684 | 40135 ft | 533 kts | 71° |
| 2026-05-07 15:57 | 51.81606 | -50.75556 | 40135 ft | 533 kts | 71° |
| 2026-05-07 15:57 | 51.84358 | -50.64427 | 40135 ft | 533 kts | 71° |
| 2026-05-07 15:58 | 51.87101 | -50.53276 | 40143 ft | 533 kts | 71° |
| 2026-05-07 15:58 | 51.89832 | -50.42120 | 40146 ft | 533 kts | 71° |
| 2026-05-07 15:59 | 51.92553 | -50.30946 | 40141 ft | 533 kts | 71° |
| 2026-05-07 15:59 | 51.95258 | -50.19784 | 40146 ft | 532 kts | 71° |
| 2026-05-07 16:00 | 51.97948 | -50.08621 | 40154 ft | 531 kts | 71° |
| 2026-05-07 16:00 | 52.00339 | -49.97318 | 40160 ft | 528 kts | 78° |
| 2026-05-07 16:01 | 52.02110 | -49.85750 | 40157 ft | 528 kts | 79° |
| 2026-05-07 16:01 | 52.03765 | -49.74148 | 40156 ft | 528 kts | 80° |
| 2026-05-07 16:02 | 52.05399 | -49.62526 | 40154 ft | 527 kts | 80° |
| 2026-05-07 16:02 | 52.07032 | -49.50903 | 40154 ft | 527 kts | 79° |
| 2026-05-07 16:03 | 52.08659 | -49.39285 | 40155 ft | 527 kts | 79° |
| 2026-05-07 16:03 | 52.10271 | -49.27700 | 40163 ft | 525 kts | 79° |
| 2026-05-07 16:04 | 52.11868 | -49.16125 | 40163 ft | 524 kts | 80° |
| 2026-05-07 16:04 | 52.13444 | -49.04611 | 40168 ft | 524 kts | 80° |
| 2026-05-07 16:05 | 52.15027 | -48.92942 | 40164 ft | 525 kts | 79° |
| 2026-05-07 16:05 | 52.16579 | -48.81425 | 40166 ft | 525 kts | 79° |
| 2026-05-07 16:06 | 52.18134 | -48.69796 | 40169 ft | 525 kts | 79° |
| 2026-05-07 16:06 | 52.19674 | -48.58176 | 40168 ft | 525 kts | 80° |
| 2026-05-07 16:07 | 52.21201 | -48.46558 | 40167 ft | 523 kts | 79° |
| 2026-05-07 16:07 | 52.22711 | -48.34979 | 40174 ft | 521 kts | 79° |
| 2026-05-07 16:08 | 52.24206 | -48.23429 | 40173 ft | 520 kts | 79° |
| 2026-05-07 16:08 | 52.25690 | -48.11867 | 40173 ft | 520 kts | 79° |
| 2026-05-07 16:09 | 52.27161 | -48.00306 | 40180 ft | 520 kts | 79° |
| 2026-05-07 16:09 | 52.28620 | -47.88742 | 40181 ft | 520 kts | 79° |
| 2026-05-07 16:10 | 52.30068 | -47.77160 | 40184 ft | 520 kts | 79° |
| 2026-05-07 16:10 | 52.31503 | -47.65592 | 40173 ft | 519 kts | 79° |
| 2026-05-07 16:11 | 52.32921 | -47.54067 | 40185 ft | 517 kts | 79° |
| 2026-05-07 16:11 | 52.34326 | -47.42552 | 40186 ft | 516 kts | 79° |
| 2026-05-07 16:12 | 52.35708 | -47.31123 | 40190 ft | 516 kts | 79° |
| 2026-05-07 16:12 | 52.37089 | -47.19598 | 40189 ft | 516 kts | 79° |
| 2026-05-07 16:13 | 52.38457 | -47.08084 | 40191 ft | 516 kts | 79° |
| 2026-05-07 16:13 | 52.39815 | -46.96557 | 40196 ft | 516 kts | 79° |
| 2026-05-07 16:14 | 52.41161 | -46.85031 | 40196 ft | 516 kts | 79° |
| 2026-05-07 16:15 | 52.41496 | -46.82144 | 40178 ft | 516 kts | 79° |
| 2026-05-07 16:15 | 52.42825 | -46.70623 | 40195 ft | 514 kts | 79° |
| 2026-05-07 16:16 | 52.44142 | -46.59107 | 40205 ft | 514 kts | 79° |
| 2026-05-07 16:16 | 52.45448 | -46.47587 | 40206 ft | 514 kts | 79° |
| 2026-05-07 16:17 | 52.46744 | -46.36047 | 40207 ft | 514 kts | 79° |
| 2026-05-07 16:17 | 52.48029 | -46.24503 | 40216 ft | 514 kts | 79° |
| 2026-05-07 16:18 | 52.49301 | -46.12960 | 40214 ft | 514 kts | 79° |
| 2026-05-07 16:18 | 52.50564 | -46.01396 | 40212 ft | 515 kts | 79° |
| 2026-05-07 16:19 | 52.51817 | -45.89815 | 40202 ft | 515 kts | 79° |
| 2026-05-07 16:19 | 52.53053 | -45.78275 | 40212 ft | 512 kts | 79° |
| 2026-05-07 16:20 | 52.54266 | -45.66839 | 40208 ft | 511 kts | 79° |
| 2026-05-07 16:20 | 52.55476 | -45.55324 | 40210 ft | 511 kts | 79° |
| 2026-05-07 16:21 | 52.56674 | -45.43806 | 40212 ft | 511 kts | 79° |
| 2026-05-07 16:21 | 52.57861 | -45.32282 | 40213 ft | 511 kts | 79° |
| 2026-05-07 16:22 | 52.59037 | -45.20753 | 40219 ft | 511 kts | 80° |
| 2026-05-07 16:22 | 52.60202 | -45.09215 | 40215 ft | 511 kts | 80° |
| 2026-05-07 16:23 | 52.61356 | -44.97677 | 40217 ft | 511 kts | 80° |
| 2026-05-07 16:23 | 52.62498 | -44.86126 | 40223 ft | 511 kts | 80° |
| 2026-05-07 16:24 | 52.63629 | -44.74570 | 40223 ft | 511 kts | 80° |
| 2026-05-07 16:24 | 52.64748 | -44.63017 | 40221 ft | 511 kts | 80° |
| 2026-05-07 16:25 | 52.65858 | -44.51445 | 40221 ft | 511 kts | 80° |
| 2026-05-07 16:25 | 52.66955 | -44.39870 | 40225 ft | 511 kts | 81° |
| 2026-05-07 16:26 | 52.68041 | -44.28295 | 40229 ft | 512 kts | 80° |
| 2026-05-07 16:26 | 52.69118 | -44.16690 | 40227 ft | 512 kts | 81° |
| 2026-05-07 16:27 | 52.70182 | -44.05086 | 40232 ft | 511 kts | 80° |
| 2026-05-07 16:27 | 52.71232 | -43.93509 | 40231 ft | 511 kts | 80° |
| 2026-05-07 16:28 | 52.72272 | -43.81920 | 40232 ft | 511 kts | 80° |
| 2026-05-07 16:28 | 52.73293 | -43.70404 | 40240 ft | 511 kts | 80° |
| 2026-05-07 16:29 | 52.74311 | -43.58803 | 40237 ft | 511 kts | 80° |
| 2026-05-07 16:29 | 52.75318 | -43.47189 | 40238 ft | 511 kts | 80° |
| 2026-05-07 16:30 | 52.76314 | -43.35568 | 40249 ft | 511 kts | 81° |
| 2026-05-07 16:30 | 52.77297 | -43.23944 | 40247 ft | 511 kts | 80° |
| 2026-05-07 16:31 | 52.78267 | -43.12340 | 40247 ft | 509 kts | 80° |
| 2026-05-07 16:31 | 52.79223 | -43.00769 | 40249 ft | 508 kts | 80° |
| 2026-05-07 16:32 | 52.80167 | -42.89204 | 40250 ft | 508 kts | 80° |
| 2026-05-07 16:32 | 52.81100 | -42.77633 | 40249 ft | 508 kts | 80° |
| 2026-05-07 16:33 | 52.82022 | -42.66054 | 40251 ft | 508 kts | 81° |
| 2026-05-07 16:33 | 52.82932 | -42.54475 | 40253 ft | 508 kts | 80° |
| 2026-05-07 16:34 | 52.83831 | -42.42879 | 40253 ft | 508 kts | 81° |
| 2026-05-07 16:34 | 52.84719 | -42.31279 | 40254 ft | 508 kts | 80° |
| 2026-05-07 16:35 | 52.85594 | -42.19705 | 40258 ft | 506 kts | 80° |
| 2026-05-07 16:35 | 52.86456 | -42.08148 | 40257 ft | 506 kts | 80° |
| 2026-05-07 16:36 | 52.87307 | -41.96576 | 40267 ft | 506 kts | 80° |
| 2026-05-07 16:36 | 52.88149 | -41.84987 | 40263 ft | 507 kts | 80° |
| 2026-05-07 16:37 | 52.88979 | -41.73390 | 40265 ft | 507 kts | 80° |
| 2026-05-07 16:37 | 52.89798 | -41.61785 | 40265 ft | 507 kts | 81° |
| 2026-05-07 16:38 | 52.90606 | -41.50170 | 40271 ft | 508 kts | 81° |
| 2026-05-07 16:38 | 52.91268 | -41.40522 | 40292 ft | 507 kts | 80° |
| 2026-05-07 16:39 | 52.92187 | -41.26925 | 40275 ft | 508 kts | 80° |
| 2026-05-07 16:39 | 52.92833 | -41.17249 | 40277 ft | 509 kts | 80° |
| 2026-05-07 16:40 | 52.93599 | -41.05601 | 40277 ft | 509 kts | 81° |
| 2026-05-07 16:40 | 52.94354 | -40.93929 | 40283 ft | 509 kts | 81° |
| 2026-05-07 16:41 | 52.95097 | -40.82265 | 40283 ft | 509 kts | 81° |
| 2026-05-07 16:41 | 52.95831 | -40.70574 | 40285 ft | 511 kts | 81° |
| 2026-05-07 16:42 | 52.96554 | -40.58859 | 40285 ft | 511 kts | 81° |
| 2026-05-07 16:42 | 52.97267 | -40.47124 | 40294 ft | 510 kts | 80° |
| 2026-05-07 16:43 | 52.97965 | -40.35418 | 40294 ft | 510 kts | 81° |
| 2026-05-07 16:43 | 52.98653 | -40.23710 | 40294 ft | 510 kts | 81° |
| 2026-05-07 16:44 | 52.99329 | -40.11991 | 40300 ft | 511 kts | 80° |
| 2026-05-07 16:44 | 53.00103 | -40.00268 | 40300 ft | 508 kts | 75° |
| 2026-05-07 16:45 | 53.01597 | -39.88826 | 40298 ft | 506 kts | 72° |
| 2026-05-07 16:45 | 53.03214 | -39.77520 | 40305 ft | 506 kts | 72° |
| 2026-05-07 16:46 | 53.04854 | -39.66141 | 40292 ft | 507 kts | 72° |
| 2026-05-07 16:46 | 53.06474 | -39.54742 | 40302 ft | 507 kts | 72° |
| 2026-05-07 16:47 | 53.08074 | -39.43339 | 40304 ft | 505 kts | 72° |
| 2026-05-07 16:47 | 53.09655 | -39.31970 | 40303 ft | 504 kts | 72° |
| 2026-05-07 16:48 | 53.11223 | -39.20612 | 40306 ft | 504 kts | 72° |
| 2026-05-07 16:48 | 53.12782 | -39.09239 | 40306 ft | 504 kts | 72° |
| 2026-05-07 16:49 | 53.14329 | -38.97863 | 40309 ft | 504 kts | 72° |
| 2026-05-07 16:49 | 53.15866 | -38.86479 | 40310 ft | 504 kts | 72° |
| 2026-05-07 16:50 | 53.17382 | -38.75152 | 40312 ft | 504 kts | 72° |
| 2026-05-07 16:50 | 53.18898 | -38.63741 | 40311 ft | 504 kts | 72° |
| 2026-05-07 16:51 | 53.20401 | -38.52327 | 40316 ft | 504 kts | 72° |
| 2026-05-07 16:51 | 53.21897 | -38.40892 | 40314 ft | 505 kts | 72° |
| 2026-05-07 16:52 | 53.23382 | -38.29446 | 40316 ft | 505 kts | 72° |
| 2026-05-07 16:52 | 53.24854 | -38.17997 | 40315 ft | 504 kts | 72° |
| 2026-05-07 16:53 | 53.26312 | -38.06569 | 40317 ft | 503 kts | 72° |
| 2026-05-07 16:53 | 53.27757 | -37.95152 | 40321 ft | 503 kts | 72° |
| 2026-05-07 16:54 | 53.29193 | -37.83714 | 40318 ft | 503 kts | 72° |
| 2026-05-07 16:54 | 53.30617 | -37.72273 | 40331 ft | 503 kts | 72° |
| 2026-05-07 16:55 | 53.32033 | -37.60807 | 40322 ft | 503 kts | 72° |
| 2026-05-07 16:55 | 53.33436 | -37.49342 | 40341 ft | 503 kts | 72° |
| 2026-05-07 16:56 | 53.34828 | -37.37867 | 40327 ft | 504 kts | 72° |
| 2026-05-07 16:56 | 53.36900 | -37.20616 | 40327 ft | 504 kts | 72° |
| 2026-05-07 16:57 | 53.38266 | -37.09108 | 40327 ft | 504 kts | 72° |
| 2026-05-07 16:57 | 53.39623 | -36.97583 | 40338 ft | 504 kts | 72° |
| 2026-05-07 16:58 | 53.40966 | -36.86066 | 40333 ft | 504 kts | 72° |
| 2026-05-07 16:58 | 53.42299 | -36.74545 | 40330 ft | 503 kts | 72° |
| 2026-05-07 16:59 | 53.43621 | -36.63018 | 40328 ft | 504 kts | 72° |
| 2026-05-07 16:59 | 53.44932 | -36.51474 | 40328 ft | 504 kts | 72° |
| 2026-05-07 17:00 | 53.46233 | -36.39924 | 40356 ft | 504 kts | 72° |
| 2026-05-07 17:00 | 53.47523 | -36.28347 | 40333 ft | 505 kts | 72° |
| 2026-05-07 17:01 | 53.48803 | -36.16764 | 40333 ft | 505 kts | 72° |
| 2026-05-07 17:01 | 53.50071 | -36.05177 | 40333 ft | 505 kts | 73° |
| 2026-05-07 17:02 | 53.51328 | -35.93576 | 40333 ft | 505 kts | 73° |
| 2026-05-07 17:02 | 53.52576 | -35.81958 | 40335 ft | 505 kts | 73° |
| 2026-05-07 17:03 | 53.53811 | -35.70340 | 40337 ft | 505 kts | 73° |
| 2026-05-07 17:03 | 53.55035 | -35.58710 | 40332 ft | 504 kts | 73° |
| 2026-05-07 17:04 | 53.56246 | -35.47097 | 40332 ft | 504 kts | 73° |
| 2026-05-07 17:04 | 53.57439 | -35.35549 | 40332 ft | 504 kts | 73° |
| 2026-05-07 17:05 | 53.58629 | -35.23915 | 40334 ft | 504 kts | 73° |
| 2026-05-07 17:05 | 53.59807 | -35.12277 | 40337 ft | 504 kts | 73° |
| 2026-05-07 17:06 | 53.60974 | -35.00637 | 40335 ft | 505 kts | 73° |
| 2026-05-07 17:06 | 53.62130 | -34.88977 | 40332 ft | 505 kts | 73° |
| 2026-05-07 17:07 | 53.63275 | -34.77303 | 40368 ft | 505 kts | 73° |
| 2026-05-07 17:07 | 53.64409 | -34.65626 | 40333 ft | 505 kts | 73° |
| 2026-05-07 17:08 | 53.65532 | -34.53943 | 40332 ft | 505 kts | 73° |
| 2026-05-07 17:08 | 53.66643 | -34.42253 | 40332 ft | 505 kts | 73° |
| 2026-05-07 17:09 | 53.67743 | -34.30553 | 40333 ft | 505 kts | 73° |
| 2026-05-07 17:09 | 53.68833 | -34.18838 | 40354 ft | 506 kts | 74° |
| 2026-05-07 17:10 | 53.69912 | -34.07112 | 40331 ft | 506 kts | 74° |
| 2026-05-07 17:10 | 53.70979 | -33.95381 | 40326 ft | 506 kts | 74° |
| 2026-05-07 17:11 | 53.72035 | -33.83641 | 40331 ft | 506 kts | 74° |
| 2026-05-07 17:11 | 53.73074 | -33.71965 | 40325 ft | 506 kts | 74° |
| 2026-05-07 17:12 | 53.74107 | -33.60208 | 40324 ft | 506 kts | 75° |
| 2026-05-07 17:12 | 53.75130 | -33.48437 | 40331 ft | 506 kts | 75° |
| 2026-05-07 17:13 | 53.76142 | -33.36653 | 40333 ft | 507 kts | 75° |
| 2026-05-07 17:13 | 53.77141 | -33.24872 | 40329 ft | 507 kts | 75° |
| 2026-05-07 17:14 | 53.78130 | -33.13074 | 40335 ft | 507 kts | 75° |
| 2026-05-07 17:14 | 53.79105 | -33.01291 | 40330 ft | 505 kts | 75° |
| 2026-05-07 17:15 | 53.80066 | -32.89536 | 40329 ft | 505 kts | 75° |
| 2026-05-07 17:15 | 53.81016 | -32.77778 | 40330 ft | 505 kts | 76° |
| 2026-05-07 17:16 | 53.81956 | -32.66007 | 40327 ft | 505 kts | 76° |
| 2026-05-07 17:16 | 53.82883 | -32.54234 | 40357 ft | 505 kts | 76° |
| 2026-05-07 17:17 | 53.83796 | -32.42481 | 40324 ft | 503 kts | 76° |
| 2026-05-07 17:17 | 53.84696 | -32.30746 | 40325 ft | 502 kts | 76° |
| 2026-05-07 17:18 | 53.85584 | -32.19016 | 40325 ft | 502 kts | 77° |
| 2026-05-07 17:18 | 53.86462 | -32.07279 | 40319 ft | 502 kts | 77° |
| 2026-05-07 17:19 | 53.87328 | -31.95532 | 40339 ft | 502 kts | 77° |
| 2026-05-07 17:19 | 53.88181 | -31.83789 | 40319 ft | 502 kts | 77° |
| 2026-05-07 17:20 | 53.89024 | -31.72036 | 40319 ft | 502 kts | 77° |
| 2026-05-07 17:20 | 53.89854 | -31.60282 | 40319 ft | 503 kts | 77° |
| 2026-05-07 17:21 | 53.90675 | -31.48509 | 40315 ft | 503 kts | 77° |
| 2026-05-07 17:21 | 53.91484 | -31.36725 | 40322 ft | 504 kts | 77° |
| 2026-05-07 17:22 | 53.92289 | -31.24870 | 40314 ft | 507 kts | 77° |
| 2026-05-07 17:22 | 53.93081 | -31.12977 | 40314 ft | 508 kts | 78° |
| 2026-05-07 17:23 | 53.93862 | -31.01065 | 40309 ft | 508 kts | 78° |
| 2026-05-07 17:23 | 53.94626 | -30.89228 | 40309 ft | 508 kts | 78° |
| 2026-05-07 17:24 | 53.95385 | -30.77305 | 40313 ft | 509 kts | 78° |
| 2026-05-07 17:24 | 53.96136 | -30.65323 | 40313 ft | 511 kts | 78° |
| 2026-05-07 17:25 | 53.96874 | -30.53330 | 40305 ft | 511 kts | 78° |
| 2026-05-07 17:25 | 53.97600 | -30.41333 | 40299 ft | 510 kts | 78° |
| 2026-05-07 17:26 | 53.98313 | -30.29341 | 40299 ft | 510 kts | 78° |
| 2026-05-07 17:26 | 53.99014 | -30.17356 | 40297 ft | 509 kts | 79° |
| 2026-05-07 17:27 | 53.99702 | -30.05400 | 40298 ft | 508 kts | 79° |
| 2026-05-07 17:27 | 54.00258 | -29.95371 | 40290 ft | 509 kts | 80° |
| 2026-05-07 17:28 | 54.00755 | -29.83366 | 40290 ft | 510 kts | 81° |
| 2026-05-07 17:28 | 54.01190 | -29.71330 | 40323 ft | 510 kts | 81° |
| 2026-05-07 17:29 | 54.01633 | -29.59308 | 40292 ft | 509 kts | 81° |
| 2026-05-07 17:29 | 54.02082 | -29.47288 | 40279 ft | 509 kts | 81° |
| 2026-05-07 17:30 | 54.02522 | -29.35354 | 40278 ft | 509 kts | 81° |
| 2026-05-07 17:30 | 54.02952 | -29.23334 | 40277 ft | 509 kts | 81° |
| 2026-05-07 17:31 | 54.03370 | -29.11318 | 40291 ft | 509 kts | 82° |
| 2026-05-07 17:31 | 54.03776 | -28.99293 | 40276 ft | 509 kts | 82° |
| 2026-05-07 17:32 | 54.04168 | -28.87262 | 40274 ft | 509 kts | 82° |
| 2026-05-07 17:32 | 54.04549 | -28.75226 | 40266 ft | 509 kts | 82° |
| 2026-05-07 17:33 | 54.04918 | -28.63184 | 40271 ft | 509 kts | 82° |
| 2026-05-07 17:33 | 54.05276 | -28.51140 | 40278 ft | 510 kts | 83° |
| 2026-05-07 17:34 | 54.05622 | -28.39085 | 40262 ft | 510 kts | 83° |
| 2026-05-07 17:34 | 54.05955 | -28.27018 | 40260 ft | 510 kts | 83° |
| 2026-05-07 17:35 | 54.06277 | -28.14954 | 40260 ft | 510 kts | 83° |
| 2026-05-07 17:35 | 54.06584 | -28.02959 | 40257 ft | 511 kts | 83° |
| 2026-05-07 17:36 | 54.06882 | -27.90878 | 40251 ft | 511 kts | 83° |
| 2026-05-07 17:36 | 54.07168 | -27.78801 | 40249 ft | 511 kts | 83° |
| 2026-05-07 17:37 | 54.07441 | -27.66704 | 40249 ft | 511 kts | 84° |
| 2026-05-07 17:37 | 54.07703 | -27.54617 | 40249 ft | 511 kts | 84° |
| 2026-05-07 17:38 | 54.07952 | -27.42522 | 40246 ft | 511 kts | 84° |
| 2026-05-07 17:38 | 54.08190 | -27.30418 | 40239 ft | 512 kts | 84° |
| 2026-05-07 17:39 | 54.08416 | -27.18304 | 40238 ft | 512 kts | 84° |
| 2026-05-07 17:39 | 54.08629 | -27.06172 | 40235 ft | 512 kts | 84° |
| 2026-05-07 17:40 | 54.08830 | -26.94040 | 40233 ft | 512 kts | 84° |
| 2026-05-07 17:40 | 54.09019 | -26.81914 | 40227 ft | 512 kts | 84° |
| 2026-05-07 17:41 | 54.09197 | -26.69783 | 40224 ft | 513 kts | 85° |
| 2026-05-07 17:41 | 54.09362 | -26.57618 | 40226 ft | 514 kts | 85° |
| 2026-05-07 17:42 | 54.09515 | -26.45451 | 40222 ft | 514 kts | 85° |
| 2026-05-07 17:42 | 54.09655 | -26.33281 | 40221 ft | 514 kts | 85° |
| 2026-05-07 17:43 | 54.09783 | -26.21113 | 40233 ft | 514 kts | 85° |
| 2026-05-07 17:43 | 54.09900 | -26.08927 | 40211 ft | 515 kts | 85° |
| 2026-05-07 17:44 | 54.10003 | -25.96814 | 40217 ft | 515 kts | 86° |
| 2026-05-07 17:44 | 54.10095 | -25.84616 | 40206 ft | 515 kts | 86° |
| 2026-05-07 17:45 | 54.10174 | -25.72408 | 40213 ft | 515 kts | 86° |
| 2026-05-07 17:45 | 54.10241 | -25.60201 | 40213 ft | 515 kts | 86° |
| 2026-05-07 17:46 | 54.10296 | -25.47982 | 40192 ft | 516 kts | 86° |
| 2026-05-07 17:46 | 54.10339 | -25.35751 | 40198 ft | 516 kts | 86° |
| 2026-05-07 17:47 | 54.10368 | -25.23506 | 40191 ft | 517 kts | 86° |
| 2026-05-07 17:47 | 54.10386 | -25.11269 | 40192 ft | 517 kts | 86° |
| 2026-05-07 17:48 | 54.10391 | -24.99026 | 40191 ft | 517 kts | 87° |
| 2026-05-07 17:48 | 54.10384 | -24.86753 | 40188 ft | 518 kts | 87° |
| 2026-05-07 17:49 | 54.10364 | -24.74490 | 40180 ft | 518 kts | 87° |
| 2026-05-07 17:49 | 54.10332 | -24.62222 | 40182 ft | 518 kts | 87° |
| 2026-05-07 17:50 | 54.10287 | -24.49954 | 40181 ft | 518 kts | 87° |
| 2026-05-07 17:50 | 54.10230 | -24.37674 | 40179 ft | 518 kts | 88° |
| 2026-05-07 17:51 | 54.10161 | -24.25401 | 40176 ft | 518 kts | 88° |
| 2026-05-07 17:51 | 54.10079 | -24.13115 | 40173 ft | 518 kts | 88° |
| 2026-05-07 17:52 | 54.09984 | -24.00844 | 40173 ft | 518 kts | 88° |
| 2026-05-07 17:52 | 54.09876 | -23.88558 | 40184 ft | 519 kts | 88° |
| 2026-05-07 17:53 | 54.09757 | -23.76270 | 40168 ft | 519 kts | 89° |
| 2026-05-07 17:53 | 54.09624 | -23.63982 | 40161 ft | 519 kts | 89° |
| 2026-05-07 17:54 | 54.09480 | -23.51770 | 40161 ft | 519 kts | 89° |
| 2026-05-07 17:54 | 54.09323 | -23.39486 | 40153 ft | 519 kts | 89° |
| 2026-05-07 17:55 | 54.09153 | -23.27201 | 40159 ft | 519 kts | 89° |
| 2026-05-07 17:55 | 54.08971 | -23.14909 | 40140 ft | 519 kts | 89° |
| 2026-05-07 17:56 | 54.08776 | -23.02627 | 40148 ft | 519 kts | 89° |
| 2026-05-07 17:56 | 54.08568 | -22.90335 | 40139 ft | 519 kts | 90° |
| 2026-05-07 17:57 | 54.08385 | -22.80033 | 40144 ft | 519 kts | 90° |
| 2026-05-07 17:57 | 54.08116 | -22.65740 | 40136 ft | 520 kts | 90° |
| 2026-05-07 17:58 | 54.07870 | -22.53441 | 40140 ft | 520 kts | 90° |
| 2026-05-07 17:58 | 54.07612 | -22.41136 | 40135 ft | 520 kts | 90° |
| 2026-05-07 17:59 | 54.07341 | -22.28833 | 40136 ft | 520 kts | 90° |
| 2026-05-07 17:59 | 54.07058 | -22.16527 | 40134 ft | 520 kts | 90° |
| 2026-05-07 18:00 | 54.06762 | -22.04227 | 40133 ft | 520 kts | 90° |
| 2026-05-07 18:00 | 54.06454 | -21.91936 | 40125 ft | 520 kts | 91° |
| 2026-05-07 18:01 | 54.06133 | -21.79633 | 40125 ft | 520 kts | 91° |
| 2026-05-07 18:01 | 54.05800 | -21.67343 | 40123 ft | 520 kts | 91° |
| 2026-05-07 18:02 | 54.05277 | -21.48899 | 40125 ft | 520 kts | 91° |
| 2026-05-07 18:03 | 54.04915 | -21.36695 | 40123 ft | 520 kts | 91° |
| 2026-05-07 18:03 | 54.04537 | -21.24410 | 40120 ft | 520 kts | 91° |
| 2026-05-07 18:04 | 54.04148 | -21.12126 | 40114 ft | 520 kts | 91° |
| 2026-05-07 18:04 | 54.03745 | -20.99837 | 40124 ft | 520 kts | 91° |
| 2026-05-07 18:05 | 54.03331 | -20.87549 | 40108 ft | 520 kts | 92° |
| 2026-05-07 18:05 | 54.02904 | -20.75273 | 40108 ft | 520 kts | 92° |
| 2026-05-07 18:06 | 54.02464 | -20.63000 | 40103 ft | 520 kts | 92° |
| 2026-05-07 18:06 | 54.02011 | -20.50719 | 40098 ft | 520 kts | 92° |
| 2026-05-07 18:07 | 54.01547 | -20.38447 | 40105 ft | 520 kts | 93° |
| 2026-05-07 18:07 | 54.01069 | -20.26164 | 40098 ft | 521 kts | 93° |
| 2026-05-07 18:08 | 54.00579 | -20.13901 | 40097 ft | 521 kts | 93° |
| 2026-05-07 18:08 | 53.99972 | -20.01628 | 40097 ft | 521 kts | 99° |
| 2026-05-07 18:09 | 53.98235 | -19.89684 | 40089 ft | 521 kts | 105° |
| 2026-05-07 18:09 | 53.96170 | -19.77881 | 40096 ft | 521 kts | 107° |
| 2026-05-07 18:10 | 53.94044 | -19.66105 | 40083 ft | 521 kts | 107° |
| 2026-05-07 18:10 | 53.91924 | -19.54352 | 40065 ft | 521 kts | 107° |
| 2026-05-07 18:11 | 53.89805 | -19.42589 | 40079 ft | 521 kts | 107° |
| 2026-05-07 18:11 | 53.87680 | -19.30847 | 40075 ft | 521 kts | 107° |
| 2026-05-07 18:12 | 53.85543 | -19.19108 | 40072 ft | 521 kts | 107° |
| 2026-05-07 18:12 | 53.83407 | -19.07458 | 40064 ft | 521 kts | 108° |
| 2026-05-07 18:13 | 53.81235 | -18.95684 | 40067 ft | 521 kts | 108° |
| 2026-05-07 18:13 | 53.79077 | -18.84066 | 40058 ft | 521 kts | 108° |
| 2026-05-07 18:14 | 53.76895 | -18.72385 | 40057 ft | 521 kts | 108° |
| 2026-05-07 18:14 | 53.74703 | -18.60727 | 40056 ft | 520 kts | 108° |
| 2026-05-07 18:15 | 53.72500 | -18.49080 | 40055 ft | 520 kts | 108° |
| 2026-05-07 18:15 | 53.70288 | -18.37458 | 40050 ft | 520 kts | 108° |
| 2026-05-07 18:16 | 53.68426 | -18.27730 | 40050 ft | 520 kts | 108° |
| 2026-05-07 18:16 | 53.66191 | -18.16123 | 40044 ft | 520 kts | 109° |
| 2026-05-07 18:17 | 53.63946 | -18.04532 | 40048 ft | 520 kts | 109° |
| 2026-05-07 18:17 | 53.61693 | -17.92965 | 40046 ft | 520 kts | 109° |
| 2026-05-07 18:18 | 53.59439 | -17.81464 | 40040 ft | 520 kts | 109° |
| 2026-05-07 18:18 | 53.57163 | -17.69922 | 40038 ft | 520 kts | 109° |
| 2026-05-07 18:19 | 53.54861 | -17.58319 | 40035 ft | 520 kts | 109° |
| 2026-05-07 18:19 | 53.52579 | -17.46879 | 40034 ft | 520 kts | 109° |
| 2026-05-07 18:20 | 53.50269 | -17.35370 | 40031 ft | 520 kts | 109° |
| 2026-05-07 18:20 | 53.47950 | -17.23882 | 40029 ft | 520 kts | 110° |
| 2026-05-07 18:21 | 53.45617 | -17.12393 | 40026 ft | 520 kts | 110° |
| 2026-05-07 18:21 | 53.43272 | -17.00915 | 40027 ft | 520 kts | 110° |
| 2026-05-07 18:22 | 53.40917 | -16.89449 | 40021 ft | 520 kts | 110° |
| 2026-05-07 18:22 | 53.38552 | -16.78004 | 40025 ft | 520 kts | 110° |
| 2026-05-07 18:23 | 53.36177 | -16.66576 | 40016 ft | 520 kts | 110° |
| 2026-05-07 18:23 | 53.33789 | -16.55149 | 40006 ft | 520 kts | 111° |
| 2026-05-07 18:24 | 53.31395 | -16.43759 | 40024 ft | 519 kts | 111° |
| 2026-05-07 18:24 | 53.28988 | -16.32370 | 40008 ft | 519 kts | 111° |
| 2026-05-07 18:25 | 53.26571 | -16.21003 | 40013 ft | 519 kts | 111° |
| 2026-05-07 18:25 | 53.24146 | -16.09658 | 40019 ft | 519 kts | 111° |
| 2026-05-07 18:26 | 53.21708 | -15.98314 | 40009 ft | 519 kts | 111° |
| 2026-05-07 18:26 | 53.19261 | -15.86993 | 40000 ft | 519 kts | 111° |
| 2026-05-07 18:27 | 53.16819 | -15.75756 | 40004 ft | 519 kts | 111° |
| 2026-05-07 18:27 | 53.14334 | -15.64383 | 40004 ft | 519 kts | 111° |
| 2026-05-07 18:28 | 53.11853 | -15.53096 | 40003 ft | 519 kts | 111° |
| 2026-05-07 18:28 | 53.09378 | -15.41888 | 39995 ft | 519 kts | 112° |
| 2026-05-07 18:29 | 53.06877 | -15.30631 | 39998 ft | 519 kts | 112° |
| 2026-05-07 18:29 | 53.04366 | -15.19387 | 39999 ft | 519 kts | 112° |
| 2026-05-07 18:30 | 53.01845 | -15.08158 | 39996 ft | 519 kts | 112° |
| 2026-05-07 18:30 | 53.00143 | -14.96539 | 39578 ft | 521 kts | 96° |
| 2026-05-07 18:30 | 52.99971 | -14.90545 | 38986 ft | 520 kts | 92° |
| 2026-05-07 18:31 | 52.99942 | -14.84539 | 38376 ft | 518 kts | 91° |
| 2026-05-07 18:31 | 52.99975 | -14.78568 | 38040 ft | 519 kts | 90° |
| 2026-05-07 18:31 | 53.00024 | -14.72563 | 37988 ft | 522 kts | 90° |
| 2026-05-07 18:32 | 53.00097 | -14.60504 | 37990 ft | 523 kts | 91° |
| 2026-05-07 18:32 | 53.00119 | -14.48439 | 37987 ft | 523 kts | 91° |
| 2026-05-07 18:33 | 53.00111 | -14.36379 | 37987 ft | 522 kts | 91° |
| 2026-05-07 18:33 | 53.00088 | -14.24326 | 37985 ft | 522 kts | 91° |
| 2026-05-07 18:34 | 53.00055 | -14.12286 | 37982 ft | 521 kts | 91° |
| 2026-05-07 18:34 | 53.00126 | -14.00250 | 37983 ft | 522 kts | 85° |
| 2026-05-07 18:35 | 53.01033 | -13.88287 | 37982 ft | 523 kts | 83° |
| 2026-05-07 18:35 | 53.02094 | -13.76334 | 37981 ft | 523 kts | 82° |
| 2026-05-07 18:36 | 53.03164 | -13.64402 | 37980 ft | 522 kts | 82° |
| 2026-05-07 18:36 | 53.04211 | -13.52458 | 37977 ft | 522 kts | 83° |
| 2026-05-07 18:37 | 53.05237 | -13.40508 | 37977 ft | 522 kts | 83° |
| 2026-05-07 18:37 | 53.06249 | -13.28550 | 37974 ft | 522 kts | 83° |
| 2026-05-07 18:38 | 53.07248 | -13.16604 | 37974 ft | 522 kts | 83° |
| 2026-05-07 18:38 | 53.08235 | -13.04647 | 37974 ft | 521 kts | 83° |
| 2026-05-07 18:39 | 53.09210 | -12.92699 | 37974 ft | 521 kts | 83° |
| 2026-05-07 18:39 | 53.10166 | -12.80818 | 37959 ft | 521 kts | 83° |
| 2026-05-07 18:40 | 53.10987 | -12.70509 | 37966 ft | 521 kts | 83° |
| 2026-05-07 18:40 | 53.11921 | -12.58630 | 37966 ft | 521 kts | 84° |
| 2026-05-07 18:41 | 53.12848 | -12.46684 | 37966 ft | 521 kts | 84° |
| 2026-05-07 18:41 | 53.13763 | -12.34726 | 37966 ft | 521 kts | 84° |
| 2026-05-07 18:42 | 53.14666 | -12.22770 | 37963 ft | 520 kts | 84° |
| 2026-05-07 18:42 | 53.15555 | -12.10838 | 37960 ft | 519 kts | 84° |
| 2026-05-07 18:43 | 53.16432 | -11.98889 | 37961 ft | 519 kts | 84° |
| 2026-05-07 18:43 | 53.17297 | -11.86947 | 37960 ft | 519 kts | 84° |
| 2026-05-07 18:44 | 53.18151 | -11.74988 | 37959 ft | 518 kts | 84° |
| 2026-05-07 18:44 | 53.18990 | -11.63067 | 37954 ft | 517 kts | 85° |
| 2026-05-07 18:45 | 53.19816 | -11.51151 | 37950 ft | 517 kts | 85° |
| 2026-05-07 18:45 | 53.20630 | -11.39224 | 37952 ft | 517 kts | 85° |
| 2026-05-07 18:46 | 53.21432 | -11.27305 | 37948 ft | 517 kts | 85° |
| 2026-05-07 18:46 | 53.22221 | -11.15402 | 37947 ft | 515 kts | 85° |
| 2026-05-07 18:47 | 53.22994 | -11.03539 | 37949 ft | 514 kts | 85° |
| 2026-05-07 18:47 | 53.23757 | -10.91670 | 37948 ft | 514 kts | 85° |
| 2026-05-07 18:48 | 53.24506 | -10.79824 | 37951 ft | 513 kts | 85° |
| 2026-05-07 18:48 | 53.25243 | -10.67963 | 37946 ft | 513 kts | 85° |
| 2026-05-07 18:49 | 53.25969 | -10.56109 | 37943 ft | 513 kts | 85° |
| 2026-05-07 18:49 | 53.26677 | -10.44331 | 37944 ft | 513 kts | 85° |
| 2026-05-07 18:50 | 53.27384 | -10.32382 | 37947 ft | 513 kts | 86° |
| 2026-05-07 18:50 | 53.28070 | -10.20601 | 37947 ft | 513 kts | 86° |
| 2026-05-07 18:51 | 53.28747 | -10.08747 | 37943 ft | 512 kts | 86° |
| 2026-05-07 18:51 | 53.29412 | -9.96897 | 37943 ft | 512 kts | 86° |
| 2026-05-07 18:52 | 53.30066 | -9.85037 | 37934 ft | 512 kts | 86° |
| 2026-05-07 18:52 | 53.30707 | -9.73182 | 37930 ft | 512 kts | 86° |
| 2026-05-07 18:53 | 53.31338 | -9.61313 | 37943 ft | 512 kts | 86° |
| 2026-05-07 18:53 | 53.31957 | -9.49445 | 37943 ft | 512 kts | 86° |
| 2026-05-07 18:54 | 53.32563 | -9.37579 | 37929 ft | 512 kts | 86° |
| 2026-05-07 18:54 | 53.33157 | -9.25710 | 37935 ft | 512 kts | 86° |
| 2026-05-07 18:55 | 53.33739 | -9.13850 | 37939 ft | 511 kts | 86° |
| 2026-05-07 18:55 | 53.34309 | -9.01996 | 37942 ft | 511 kts | 86° |
| 2026-05-07 18:56 | 53.34868 | -8.90129 | 37936 ft | 511 kts | 87° |
| 2026-05-07 18:56 | 53.35414 | -8.78276 | 37937 ft | 511 kts | 87° |
| 2026-05-07 18:57 | 53.35948 | -8.66421 | 37932 ft | 510 kts | 87° |
| 2026-05-07 18:57 | 53.36470 | -8.54577 | 37932 ft | 510 kts | 87° |
| 2026-05-07 18:58 | 53.36980 | -8.42741 | 37930 ft | 510 kts | 87° |
| 2026-05-07 18:58 | 53.37478 | -8.30900 | 37930 ft | 510 kts | 87° |
| 2026-05-07 18:59 | 53.37964 | -8.19056 | 37925 ft | 509 kts | 87° |
| 2026-05-07 18:59 | 53.38435 | -8.07309 | 37927 ft | 509 kts | 87° |
| 2026-05-07 19:00 | 53.38898 | -7.95475 | 37931 ft | 509 kts | 87° |
| 2026-05-07 19:00 | 53.39348 | -7.83648 | 37930 ft | 509 kts | 88° |
| 2026-05-07 19:01 | 53.39814 | -7.71813 | 37915 ft | 509 kts | 87° |
| 2026-05-07 19:01 | 53.40366 | -7.60010 | 37927 ft | 508 kts | 86° |
| 2026-05-07 19:02 | 53.40916 | -7.48217 | 37931 ft | 508 kts | 86° |
| 2026-05-07 19:02 | 53.41353 | -7.38402 | 37931 ft | 508 kts | 87° |
| 2026-05-07 19:03 | 53.41859 | -7.26609 | 37930 ft | 508 kts | 87° |
| 2026-05-07 19:03 | 53.42352 | -7.14807 | 37925 ft | 507 kts | 87° |
| 2026-05-07 19:04 | 53.42833 | -7.03002 | 37931 ft | 507 kts | 87° |
| 2026-05-07 19:04 | 53.43303 | -6.91204 | 37930 ft | 507 kts | 87° |
| 2026-05-07 19:05 | 53.43762 | -6.79394 | 37931 ft | 507 kts | 87° |
| 2026-05-07 19:05 | 53.44209 | -6.67593 | 37925 ft | 507 kts | 88° |
| 2026-05-07 19:06 | 53.44645 | -6.55757 | 37938 ft | 509 kts | 88° |
| 2026-05-07 19:06 | 53.45277 | -6.37983 | 37939 ft | 509 kts | 88° |
| 2026-05-07 19:07 | 53.45684 | -6.26137 | 37942 ft | 509 kts | 88° |
| 2026-05-07 19:07 | 53.46080 | -6.14287 | 37943 ft | 509 kts | 88° |
| 2026-05-07 19:08 | 53.46463 | -6.02450 | 37941 ft | 508 kts | 88° |
| 2026-05-07 19:08 | 53.46835 | -5.90587 | 37952 ft | 508 kts | 88° |
| 2026-05-07 19:09 | 53.47195 | -5.78738 | 37949 ft | 508 kts | 89° |
| 2026-05-07 19:09 | 53.47543 | -5.66903 | 37961 ft | 508 kts | 89° |
| 2026-05-07 19:10 | 53.47879 | -5.55046 | 37966 ft | 508 kts | 89° |
| 2026-05-07 19:10 | 53.47833 | -5.43201 | 37966 ft | 507 kts | 94° |
| 2026-05-07 19:11 | 53.47524 | -5.31378 | 37966 ft | 507 kts | 94° |
| 2026-05-07 19:11 | 53.47169 | -5.19564 | 37966 ft | 507 kts | 95° |
| 2026-05-07 19:12 | 53.46808 | -5.07759 | 37974 ft | 506 kts | 95° |
| 2026-05-07 19:12 | 53.46431 | -4.96031 | 37974 ft | 506 kts | 95° |
| 2026-05-07 19:13 | 53.46039 | -4.84171 | 37977 ft | 506 kts | 95° |
| 2026-05-07 19:13 | 53.45651 | -4.72464 | 37979 ft | 506 kts | 95° |
| 2026-05-07 19:14 | 53.45246 | -4.60674 | 37980 ft | 506 kts | 95° |
| 2026-05-07 19:14 | 53.44833 | -4.48908 | 37988 ft | 505 kts | 95° |
| 2026-05-07 19:15 | 53.44402 | -4.37144 | 37990 ft | 505 kts | 95° |
| 2026-05-07 19:15 | 53.43967 | -4.25389 | 37990 ft | 505 kts | 95° |
| 2026-05-07 19:16 | 53.43515 | -4.13641 | 37993 ft | 505 kts | 96° |
| 2026-05-07 19:16 | 53.43051 | -4.01888 | 37992 ft | 505 kts | 96° |
| 2026-05-07 19:17 | 53.42579 | -3.90151 | 37994 ft | 504 kts | 96° |
| 2026-05-07 19:17 | 53.42095 | -3.78421 | 37995 ft | 504 kts | 96° |
| 2026-05-07 19:18 | 53.41563 | -3.66705 | 37995 ft | 504 kts | 99° |
| 2026-05-07 19:18 | 53.39750 | -3.55483 | 38002 ft | 497 kts | 116° |
| 2026-05-07 19:19 | 53.36875 | -3.44978 | 38002 ft | 495 kts | 118° |
| 2026-05-07 19:19 | 53.33848 | -3.34623 | 38008 ft | 495 kts | 118° |
| 2026-05-07 19:20 | 53.30813 | -3.24277 | 38013 ft | 495 kts | 118° |
| 2026-05-07 19:20 | 53.27784 | -3.13925 | 38016 ft | 495 kts | 118° |
| 2026-05-07 19:21 | 53.24758 | -3.03595 | 38015 ft | 495 kts | 118° |
| 2026-05-07 19:21 | 53.21724 | -2.93275 | 38020 ft | 495 kts | 118° |
| 2026-05-07 19:22 | 53.18679 | -2.82960 | 38019 ft | 496 kts | 118° |
| 2026-05-07 19:22 | 53.15627 | -2.72662 | 38010 ft | 496 kts | 118° |
| 2026-05-07 19:23 | 53.12567 | -2.62381 | 37756 ft | 495 kts | 118° |
| 2026-05-07 19:23 | 53.11038 | -2.57257 | 37069 ft | 492 kts | 118° |
| 2026-05-07 19:23 | 53.09515 | -2.52170 | 36354 ft | 491 kts | 118° |
| 2026-05-07 19:24 | 53.07996 | -2.47105 | 35663 ft | 489 kts | 118° |
| 2026-05-07 19:24 | 53.06475 | -2.42045 | 34950 ft | 488 kts | 118° |
| 2026-05-07 19:24 | 53.04955 | -2.37004 | 34244 ft | 487 kts | 119° |
| 2026-05-07 19:24 | 53.03197 | -2.32220 | 33400 ft | 483 kts | 130° |
| 2026-05-07 19:25 | 53.00854 | -2.28276 | 32496 ft | 479 kts | 144° |
| 2026-05-07 19:25 | 52.98123 | -2.25170 | 31552 ft | 478 kts | 150° |
| 2026-05-07 19:25 | 52.95284 | -2.22221 | 30482 ft | 483 kts | 150° |
| 2026-05-07 19:25 | 52.92421 | -2.19264 | 29415 ft | 486 kts | 150° |
| 2026-05-07 19:26 | 52.89594 | -2.16331 | 28529 ft | 485 kts | 150° |
| 2026-05-07 19:26 | 52.86755 | -2.13379 | 27764 ft | 481 kts | 150° |
| 2026-05-07 19:26 | 52.83938 | -2.10448 | 27037 ft | 476 kts | 150° |
| 2026-05-07 19:26 | 52.81142 | -2.07540 | 26369 ft | 472 kts | 150° |
| 2026-05-07 19:27 | 52.78377 | -2.04668 | 25700 ft | 467 kts | 150° |
| 2026-05-07 19:27 | 52.75638 | -2.01826 | 25045 ft | 463 kts | 150° |
| 2026-05-07 19:27 | 52.72924 | -1.99014 | 24384 ft | 459 kts | 150° |
| 2026-05-07 19:27 | 52.70225 | -1.96221 | 23743 ft | 455 kts | 150° |
| 2026-05-07 19:28 | 52.67559 | -1.93466 | 23036 ft | 451 kts | 150° |
| 2026-05-07 19:28 | 52.64919 | -1.90741 | 22348 ft | 446 kts | 150° |
| 2026-05-07 19:28 | 52.62308 | -1.88051 | 21655 ft | 440 kts | 150° |
| 2026-05-07 19:28 | 52.59721 | -1.85390 | 21010 ft | 435 kts | 150° |
| 2026-05-07 19:29 | 52.57166 | -1.82764 | 20407 ft | 430 kts | 150° |
| 2026-05-07 19:29 | 52.54639 | -1.80172 | 20110 ft | 428 kts | 150° |
| 2026-05-07 19:29 | 52.52108 | -1.77579 | 20048 ft | 429 kts | 150° |
| 2026-05-07 19:29 | 52.49579 | -1.74992 | 20043 ft | 428 kts | 150° |
| 2026-05-07 19:30 | 52.47056 | -1.72415 | 20046 ft | 428 kts | 150° |
| 2026-05-07 19:30 | 52.44528 | -1.69835 | 20047 ft | 428 kts | 150° |
| 2026-05-07 19:30 | 52.42001 | -1.67260 | 20048 ft | 428 kts | 150° |
| 2026-05-07 19:30 | 52.39478 | -1.64693 | 20047 ft | 428 kts | 150° |
| 2026-05-07 19:31 | 52.36946 | -1.62120 | 20048 ft | 428 kts | 150° |
| 2026-05-07 19:31 | 52.34423 | -1.59559 | 20045 ft | 428 kts | 150° |
| 2026-05-07 19:31 | 52.31893 | -1.56995 | 20044 ft | 428 kts | 150° |
| 2026-05-07 19:31 | 52.29364 | -1.54435 | 20068 ft | 428 kts | 150° |
| 2026-05-07 19:32 | 52.26863 | -1.51907 | 20061 ft | 428 kts | 150° |
| 2026-05-07 19:32 | 52.24335 | -1.49355 | 20073 ft | 427 kts | 150° |
| 2026-05-07 19:32 | 52.21832 | -1.46732 | 20069 ft | 429 kts | 146° |
| 2026-05-07 19:32 | 52.19473 | -1.43656 | 20074 ft | 430 kts | 141° |
| 2026-05-07 19:33 | 52.17205 | -1.40478 | 20051 ft | 428 kts | 141° |
| 2026-05-07 19:33 | 52.15004 | -1.37380 | 19496 ft | 421 kts | 141° |
| 2026-05-07 19:33 | 52.12756 | -1.34230 | 18721 ft | 421 kts | 141° |
| 2026-05-07 19:33 | 52.10545 | -1.31142 | 17986 ft | 417 kts | 141° |
| 2026-05-07 19:34 | 52.08380 | -1.28125 | 17285 ft | 413 kts | 141° |
| 2026-05-07 19:34 | 52.06210 | -1.25107 | 16570 ft | 409 kts | 141° |
| 2026-05-07 19:34 | 52.04063 | -1.22126 | 15894 ft | 404 kts | 141° |
| 2026-05-07 19:34 | 52.01939 | -1.19182 | 15297 ft | 399 kts | 141° |
| 2026-05-07 19:35 | 51.99802 | -1.16225 | 15064 ft | 398 kts | 141° |
| 2026-05-07 19:35 | 51.97744 | -1.13379 | 15017 ft | 389 kts | 141° |
| 2026-05-07 19:35 | 51.95702 | -1.10564 | 15024 ft | 383 kts | 142° |
| 2026-05-07 19:35 | 51.93510 | -1.08156 | 14988 ft | 377 kts | 154° |
| 2026-05-07 19:36 | 51.91150 | -1.06445 | 14411 ft | 371 kts | 160° |
| 2026-05-07 19:36 | 51.88748 | -1.04924 | 13690 ft | 370 kts | 160° |
| 2026-05-07 19:36 | 51.86350 | -1.03430 | 12956 ft | 368 kts | 160° |
| 2026-05-07 19:36 | 51.83968 | -1.01952 | 12238 ft | 366 kts | 160° |
| 2026-05-07 19:37 | 51.81597 | -1.00485 | 11548 ft | 363 kts | 160° |
| 2026-05-07 19:37 | 51.79248 | -0.99034 | 10883 ft | 360 kts | 160° |
| 2026-05-07 19:37 | 51.76920 | -0.97581 | 10210 ft | 358 kts | 160° |
| 2026-05-07 19:37 | 51.74613 | -0.96142 | 9663 ft | 351 kts | 160° |
| 2026-05-07 19:38 | 51.72376 | -0.94765 | 9336 ft | 337 kts | 160° |
| 2026-05-07 19:38 | 51.70235 | -0.93453 | 9043 ft | 322 kts | 160° |
| 2026-05-07 19:38 | 51.68217 | -0.92220 | 8654 ft | 298 kts | 160° |
| 2026-05-07 19:38 | 51.66313 | -0.91224 | 8266 ft | 279 kts | 171° |
| 2026-05-07 19:39 | 51.64447 | -0.91216 | 7927 ft | 260 kts | 188° |
| 2026-05-07 19:39 | 51.62710 | -0.91626 | 7533 ft | 248 kts | 190° |
| 2026-05-07 19:39 | 51.61027 | -0.92086 | 7009 ft | 243 kts | 190° |
| 2026-05-07 19:39 | 51.59903 | -0.92404 | 6628 ft | 242 kts | 190° |
| 2026-05-07 19:40 | 51.57725 | -0.93037 | 6076 ft | 239 kts | 191° |
| 2026-05-07 19:40 | 51.56080 | -0.93517 | 5982 ft | 240 kts | 189° |
| 2026-05-07 19:40 | 51.54425 | -0.93742 | 5985 ft | 239 kts | 181° |
| 2026-05-07 19:40 | 51.52770 | -0.93805 | 5981 ft | 234 kts | 181° |
| 2026-05-07 19:41 | 51.51235 | -0.93845 | 5984 ft | 207 kts | 181° |
| 2026-05-07 19:41 | 51.49842 | -0.93835 | 5766 ft | 196 kts | 175° |
| 2026-05-07 19:41 | 51.48602 | -0.93025 | 5240 ft | 194 kts | 139° |
| 2026-05-07 19:41 | 51.47902 | -0.91224 | 4797 ft | 190 kts | 110° |
| 2026-05-07 19:42 | 51.47606 | -0.89197 | 4376 ft | 185 kts | 97° |
| 2026-05-07 19:42 | 51.47510 | -0.87154 | 4048 ft | 182 kts | 91° |
| 2026-05-07 19:42 | 51.47508 | -0.85132 | 3982 ft | 178 kts | 89° |
| 2026-05-07 19:42 | 51.47523 | -0.83227 | 3976 ft | 165 kts | 89° |
| 2026-05-07 19:43 | 51.47535 | -0.81399 | 3986 ft | 163 kts | 89° |
| 2026-05-07 19:43 | 51.47541 | -0.79585 | 3942 ft | 163 kts | 90° |
| 2026-05-07 19:43 | 51.47539 | -0.77763 | 3769 ft | 164 kts | 90° |
| 2026-05-07 19:43 | 51.47550 | -0.75938 | 3527 ft | 163 kts | 89° |
| 2026-05-07 19:44 | 51.47564 | -0.74127 | 3285 ft | 160 kts | 89° |
| 2026-05-07 19:44 | 51.47576 | -0.72349 | 3060 ft | 160 kts | 90° |
| 2026-05-07 19:44 | 51.47588 | -0.70566 | 2834 ft | 160 kts | 90° |
| 2026-05-07 19:44 | 51.47600 | -0.68779 | 2615 ft | 161 kts | 91° |
| 2026-05-07 19:45 | 51.47607 | -0.67591 | 2469 ft | 161 kts | 91° |
| 2026-05-07 19:45 | 51.47623 | -0.65192 | 2177 ft | 161 kts | 91° |
| 2026-05-07 19:45 | 51.47635 | -0.63392 | 1939 ft | 162 kts | 91° |
| 2026-05-07 19:45 | 51.47646 | -0.61587 | 1729 ft | 162 kts | 91° |
| 2026-05-07 19:46 | 51.47658 | -0.59778 | 1492 ft | 162 kts | 91° |
| 2026-05-07 19:46 | 51.47669 | -0.57974 | 1283 ft | 159 kts | 91° |
| 2026-05-07 19:46 | 51.47681 | -0.56274 | 1065 ft | 147 kts | 92° |
| 2026-05-07 19:46 | 51.47691 | -0.54690 | 854 ft | 138 kts | 91° |
| 2026-05-07 19:47 | 51.47708 | -0.53684 | 794 ft | 137 kts | 86° |
| 2026-05-07 19:47 | 51.47751 | -0.52152 | 603 ft | 137 kts | 90° |
| 2026-05-07 19:47 | 51.47757 | -0.50629 | 391 ft | 136 kts | 90° |
| 2026-05-07 19:47 | 51.47762 | -0.48661 | 163 ft | 133 kts | 91° |
| 2026-05-07 19:48 | 51.47763 | -0.47680 | 92 ft | 127 kts | 91° |
| 2026-05-07 19:48 | 51.47759 | -0.46510 | 98 ft | 68 kts | 90° |
| 2026-05-07 19:48 | 51.47759 | -0.46084 | 96 ft | 30 kts | 90° |
| 2026-05-07 19:48 | 51.47759 | -0.45752 | 93 ft | 30 kts | 90° |
| 2026-05-07 19:49 | 51.47762 | -0.45427 | 91 ft | 29 kts | 88° |
| 2026-05-07 19:49 | 51.47704 | -0.45192 | 98 ft | 17 kts | 150° |
| 2026-05-07 19:49 | 51.47615 | -0.45201 | 97 ft | 10 kts | 221° |
| 2026-05-07 19:49 | 51.47612 | -0.45207 | 97 ft | 0 kts | 230° |
| 2026-05-07 19:51 | 51.47607 | -0.45224 | 93 ft | 4 kts | 245° |
| 2026-05-07 19:51 | 51.47598 | -0.45290 | 96 ft | 8 kts | 266° |
| 2026-05-07 19:51 | 51.47596 | -0.45399 | 94 ft | 12 kts | 268° |
| 2026-05-07 19:52 | 51.47595 | -0.45528 | 96 ft | 8 kts | 271° |
| 2026-05-07 19:52 | 51.47596 | -0.45644 | 95 ft | 12 kts | 270° |
| 2026-05-07 19:52 | 51.47595 | -0.45802 | 96 ft | 16 kts | 269° |
| 2026-05-07 19:52 | 51.47595 | -0.45998 | 96 ft | 19 kts | 270° |
| 2026-05-07 19:53 | 51.47594 | -0.46230 | 96 ft | 22 kts | 269° |
| 2026-05-07 19:53 | 51.47593 | -0.46479 | 95 ft | 21 kts | 270° |
| 2026-05-07 19:53 | 51.47592 | -0.46691 | 92 ft | 19 kts | 270° |
| 2026-05-07 19:53 | 51.47581 | -0.46869 | 96 ft | 13 kts | 250° |
| 2026-05-07 19:54 | 51.47502 | -0.46913 | 94 ft | 13 kts | 170° |
| 2026-05-07 19:54 | 51.47404 | -0.46879 | 95 ft | 15 kts | 168° |
| 2026-05-07 19:54 | 51.47301 | -0.46867 | 92 ft | 16 kts | 179° |
| 2026-05-07 19:54 | 51.47190 | -0.46865 | 92 ft | 10 kts | 180° |
| 2026-05-07 19:55 | 51.47112 | -0.46864 | 92 ft | 13 kts | 180° |
| 2026-05-07 19:55 | 51.47013 | -0.46864 | 92 ft | 15 kts | 179° |
| 2026-05-07 19:55 | 51.46900 | -0.46862 | 93 ft | 12 kts | 174° |
| 2026-05-07 19:55 | 51.46850 | -0.46789 | 96 ft | 11 kts | 108° |
| 2026-05-07 19:56 | 51.46843 | -0.46672 | 93 ft | 1 kts | 92° |
| 2026-05-07 19:56 | 51.46843 | -0.46659 | 96 ft | 3 kts | 91° |
| 2026-05-07 19:56 | 51.46843 | -0.46604 | 78 ft | 7 kts | 89° |
| 2026-05-07 19:56 | 51.46860 | -0.46521 | 96 ft | 9 kts | 59° |
| 2026-05-07 19:57 | 51.46895 | -0.46436 | 96 ft | 9 kts | 55° |
| 2026-05-07 19:57 | 51.46903 | -0.46416 | 97 ft | 0 kts | 55° |